<?xml version="1.0" encoding="UTF-8"?>
<gpx version="1.1" creator="2bulu-scraper" xmlns="http://www.topografix.com/GPX/1/1">
  <metadata><name>2026-04-09 10:57:33</name><desc>source: 2bulu.com trackId=81928492; exported 2026-09-01T14:53:13.625Z</desc>
    <bounds minlat="28.654997" minlon="105.37954" maxlat="28.668816" maxlon="105.399101"/>
    <link href="https://www.2bulu.com/track/t-LrYA%252BvUWzBPp%252FR2KBg5Tzw%253D%253D.htm"><text>2bulu 源页面</text></link>
  </metadata>
  <wpt lat="28.668949" lon="105.381111"><ele>319</ele><name>起点</name></wpt>
  <wpt lat="28.665787" lon="105.381492"><ele>293</ele><name>右转进大路</name></wpt>
  <wpt lat="28.665784" lon="105.381291"><ele>290</ele><name>起点</name></wpt>
  <wpt lat="28.665413" lon="105.380478"><ele>259</ele><name>穿城门</name></wpt>
  <wpt lat="28.663749" lon="105.379913"><ele>255</ele><name>左转</name></wpt>
  <wpt lat="28.663572" lon="105.382261"><ele>256</ele><name>直行</name></wpt>
  <wpt lat="28.662626" lon="105.384893"><ele>275</ele><name>直行</name></wpt>
  <wpt lat="28.662688" lon="105.388849"><ele>273</ele><name></name></wpt>
  <wpt lat="28.661703" lon="105.389614"><ele>294</ele><name>左转</name></wpt>
  <wpt lat="28.658421" lon="105.389816"><ele>320</ele><name>右转</name></wpt>
  <wpt lat="28.656256" lon="105.389175"><ele>405</ele><name>右转</name></wpt>
  <wpt lat="28.656253" lon="105.389132"><ele>403</ele><name>左转</name></wpt>
  <wpt lat="28.656343" lon="105.389474"><ele>405</ele><name>右转</name></wpt>
  <wpt lat="28.656302" lon="105.389389"><ele>409</ele><name>直行</name></wpt>
  <wpt lat="28.657451" lon="105.389913"><ele>408</ele><name>右转</name></wpt>
  <wpt lat="28.657415" lon="105.390045"><ele>417</ele><name>左转</name></wpt>
  <wpt lat="28.658229" lon="105.390886"><ele>429</ele><name>左转</name></wpt>
  <wpt lat="28.660942" lon="105.397074"><ele>429</ele><name>左转</name></wpt>
  <wpt lat="28.662346" lon="105.399038"><ele>396</ele><name>左转</name></wpt>
  <wpt lat="28.662859" lon="105.398145"><ele>380</ele><name>直行</name></wpt>
  <wpt lat="28.662658" lon="105.398099"><ele>386</ele><name>瀑布</name></wpt>
  <wpt lat="28.662009" lon="105.39244"><ele>303</ele><name>直行</name></wpt>
  <wpt lat="28.662273" lon="105.391987"><ele>297</ele><name>直行</name></wpt>
  <trk><name>2026-04-09 10:57:33</name>
      <trkseg>
        <trkpt lat="28.668816" lon="105.381175"><ele>319.59677</ele><time>2026-04-08T18:57:37.000Z</time></trkpt>
        <trkpt lat="28.668772" lon="105.381197"><ele>319.58163</ele><time>2026-04-08T18:57:41.000Z</time></trkpt>
        <trkpt lat="28.668727" lon="105.381216"><ele>320.33762</ele><time>2026-04-08T18:57:46.000Z</time></trkpt>
        <trkpt lat="28.668683" lon="105.381249"><ele>319.23767</ele><time>2026-04-08T18:57:51.000Z</time></trkpt>
        <trkpt lat="28.66863" lon="105.381264"><ele>318.55066</ele><time>2026-04-08T18:57:57.000Z</time></trkpt>
        <trkpt lat="28.668584" lon="105.381286"><ele>318.21512</ele><time>2026-04-08T18:58:00.000Z</time></trkpt>
        <trkpt lat="28.668544" lon="105.381312"><ele>317.5004</ele><time>2026-04-08T18:58:05.000Z</time></trkpt>
        <trkpt lat="28.668494" lon="105.381305"><ele>318.36832</ele><time>2026-04-08T18:58:11.000Z</time></trkpt>
        <trkpt lat="28.668447" lon="105.381277"><ele>317.31918</ele><time>2026-04-08T18:58:25.000Z</time></trkpt>
        <trkpt lat="28.668403" lon="105.381292"><ele>316.86234</ele><time>2026-04-08T18:58:30.000Z</time></trkpt>
        <trkpt lat="28.668353" lon="105.38132"><ele>317.70483</ele><time>2026-04-08T18:58:36.000Z</time></trkpt>
        <trkpt lat="28.668304" lon="105.381327"><ele>315.7958</ele><time>2026-04-08T18:58:45.000Z</time></trkpt>
        <trkpt lat="28.668255" lon="105.381337"><ele>316.41025</ele><time>2026-04-08T18:58:53.000Z</time></trkpt>
        <trkpt lat="28.668202" lon="105.381356"><ele>315.17584</ele><time>2026-04-08T18:58:59.000Z</time></trkpt>
        <trkpt lat="28.66815" lon="105.381357"><ele>314.86102</ele><time>2026-04-08T18:59:05.000Z</time></trkpt>
        <trkpt lat="28.668101" lon="105.381369"><ele>314.2003</ele><time>2026-04-08T18:59:10.000Z</time></trkpt>
        <trkpt lat="28.668051" lon="105.381362"><ele>314.09567</ele><time>2026-04-08T18:59:14.000Z</time></trkpt>
        <trkpt lat="28.668002" lon="105.381374"><ele>313.85727</ele><time>2026-04-08T18:59:19.000Z</time></trkpt>
        <trkpt lat="28.667957" lon="105.381389"><ele>314.0768</ele><time>2026-04-08T18:59:22.000Z</time></trkpt>
        <trkpt lat="28.667912" lon="105.381389"><ele>314.09476</ele><time>2026-04-08T18:59:27.000Z</time></trkpt>
        <trkpt lat="28.667865" lon="105.38139"><ele>314.71356</ele><time>2026-04-08T18:59:30.000Z</time></trkpt>
        <trkpt lat="28.66782" lon="105.381405"><ele>313.88785</ele><time>2026-04-08T18:59:35.000Z</time></trkpt>
        <trkpt lat="28.667768" lon="105.38142"><ele>314.51172</ele><time>2026-04-08T18:59:41.000Z</time></trkpt>
        <trkpt lat="28.667712" lon="105.381411"><ele>313.24692</ele><time>2026-04-08T18:59:47.000Z</time></trkpt>
        <trkpt lat="28.667664" lon="105.381432"><ele>311.65274</ele><time>2026-04-08T18:59:53.000Z</time></trkpt>
        <trkpt lat="28.667617" lon="105.381444"><ele>312.07382</ele><time>2026-04-08T18:59:59.000Z</time></trkpt>
        <trkpt lat="28.667563" lon="105.381466"><ele>311.88834</ele><time>2026-04-08T19:00:04.000Z</time></trkpt>
        <trkpt lat="28.667536" lon="105.381516"><ele>310.84564</ele><time>2026-04-08T19:00:09.000Z</time></trkpt>
        <trkpt lat="28.66749" lon="105.381544"><ele>311.55612</ele><time>2026-04-08T19:00:14.000Z</time></trkpt>
        <trkpt lat="28.667446" lon="105.381573"><ele>311.00998</ele><time>2026-04-08T19:00:19.000Z</time></trkpt>
        <trkpt lat="28.667396" lon="105.38161"><ele>311.5844</ele><time>2026-04-08T19:00:24.000Z</time></trkpt>
        <trkpt lat="28.667353" lon="105.381639"><ele>310.5054</ele><time>2026-04-08T19:00:29.000Z</time></trkpt>
        <trkpt lat="28.667312" lon="105.381672"><ele>309.90048</ele><time>2026-04-08T19:00:34.000Z</time></trkpt>
        <trkpt lat="28.667273" lon="105.3817"><ele>309.39038</ele><time>2026-04-08T19:00:38.000Z</time></trkpt>
        <trkpt lat="28.667221" lon="105.381714"><ele>308.77</ele><time>2026-04-08T19:00:43.000Z</time></trkpt>
        <trkpt lat="28.667173" lon="105.381721"><ele>308.15564</ele><time>2026-04-08T19:00:47.000Z</time></trkpt>
        <trkpt lat="28.667133" lon="105.381754"><ele>309.00085</ele><time>2026-04-08T19:00:51.000Z</time></trkpt>
        <trkpt lat="28.667085" lon="105.381747"><ele>308.77817</ele><time>2026-04-08T19:00:55.000Z</time></trkpt>
        <trkpt lat="28.667034" lon="105.381759"><ele>308.8051</ele><time>2026-04-08T19:01:00.000Z</time></trkpt>
        <trkpt lat="28.666979" lon="105.381765"><ele>309.06494</ele><time>2026-04-08T19:01:05.000Z</time></trkpt>
        <trkpt lat="28.666931" lon="105.381776"><ele>309.26358</ele><time>2026-04-08T19:01:10.000Z</time></trkpt>
        <trkpt lat="28.666879" lon="105.38179"><ele>309.42056</ele><time>2026-04-08T19:01:14.000Z</time></trkpt>
        <trkpt lat="28.666824" lon="105.381796"><ele>309.5485</ele><time>2026-04-08T19:01:19.000Z</time></trkpt>
        <trkpt lat="28.666768" lon="105.381804"><ele>310.34445</ele><time>2026-04-08T19:01:24.000Z</time></trkpt>
        <trkpt lat="28.666719" lon="105.381815"><ele>309.97946</ele><time>2026-04-08T19:01:29.000Z</time></trkpt>
        <trkpt lat="28.666673" lon="105.381814"><ele>309.60623</ele><time>2026-04-08T19:01:34.000Z</time></trkpt>
        <trkpt lat="28.666626" lon="105.381811"><ele>309.7726</ele><time>2026-04-08T19:01:39.000Z</time></trkpt>
        <trkpt lat="28.666574" lon="105.381816"><ele>308.91312</ele><time>2026-04-08T19:01:45.000Z</time></trkpt>
        <trkpt lat="28.666523" lon="105.381823"><ele>307.9526</ele><time>2026-04-08T19:01:51.000Z</time></trkpt>
        <trkpt lat="28.666471" lon="105.381803"><ele>307.1092</ele><time>2026-04-08T19:01:58.000Z</time></trkpt>
        <trkpt lat="28.666419" lon="105.381807"><ele>304.6094</ele><time>2026-04-08T19:02:04.000Z</time></trkpt>
        <trkpt lat="28.666363" lon="105.381799"><ele>302.68036</ele><time>2026-04-08T19:02:10.000Z</time></trkpt>
        <trkpt lat="28.666312" lon="105.381788"><ele>301.6518</ele><time>2026-04-08T19:02:15.000Z</time></trkpt>
        <trkpt lat="28.66627" lon="105.381769"><ele>300.94244</ele><time>2026-04-08T19:02:20.000Z</time></trkpt>
        <trkpt lat="28.666228" lon="105.381742"><ele>299.72418</ele><time>2026-04-08T19:02:25.000Z</time></trkpt>
        <trkpt lat="28.666183" lon="105.381718"><ele>298.77246</ele><time>2026-04-08T19:02:31.000Z</time></trkpt>
        <trkpt lat="28.666132" lon="105.381692"><ele>298.22983</ele><time>2026-04-08T19:02:36.000Z</time></trkpt>
        <trkpt lat="28.666093" lon="105.381646"><ele>296.51385</ele><time>2026-04-08T19:02:42.000Z</time></trkpt>
        <trkpt lat="28.666062" lon="105.381602"><ele>295.19308</ele><time>2026-04-08T19:02:46.000Z</time></trkpt>
        <trkpt lat="28.666022" lon="105.38155"><ele>294.04138</ele><time>2026-04-08T19:02:52.000Z</time></trkpt>
        <trkpt lat="28.665981" lon="105.381527"><ele>294.04532</ele><time>2026-04-08T19:02:55.000Z</time></trkpt>
        <trkpt lat="28.665936" lon="105.381512"><ele>292.70526</ele><time>2026-04-08T19:03:02.000Z</time></trkpt>
        <trkpt lat="28.665886" lon="105.381504"><ele>292.81656</ele><time>2026-04-08T19:03:07.000Z</time></trkpt>
        <trkpt lat="28.665835" lon="105.3815"><ele>292.30386</ele><time>2026-04-08T19:03:12.000Z</time></trkpt>
        <trkpt lat="28.665787" lon="105.381492"><ele>292.74496</ele><time>2026-04-08T19:03:18.000Z</time></trkpt>
        <trkpt lat="28.665741" lon="105.381504"><ele>290.62244</ele><time>2026-04-08T19:03:25.000Z</time></trkpt>
        <trkpt lat="28.665694" lon="105.381487"><ele>290.03088</ele><time>2026-04-08T19:03:30.000Z</time></trkpt>
        <trkpt lat="28.665691" lon="105.38143"><ele>290.51074</ele><time>2026-04-08T19:03:34.000Z</time></trkpt>
        <trkpt lat="28.665715" lon="105.381374"><ele>289.7138</ele><time>2026-04-08T19:03:39.000Z</time></trkpt>
        <trkpt lat="28.665757" lon="105.381338"><ele>290.52014</ele><time>2026-04-08T19:03:44.000Z</time></trkpt>
        <trkpt lat="28.665784" lon="105.381291"><ele>289.5887</ele><time>2026-04-08T19:03:49.000Z</time></trkpt>
        <trkpt lat="28.665814" lon="105.381248"><ele>289.3163</ele><time>2026-04-08T19:04:33.000Z</time></trkpt>
        <trkpt lat="28.665848" lon="105.381213"><ele>288.83685</ele><time>2026-04-08T19:04:48.000Z</time></trkpt>
        <trkpt lat="28.665886" lon="105.38118"><ele>289.00653</ele><time>2026-04-08T19:04:55.000Z</time></trkpt>
        <trkpt lat="28.665936" lon="105.381146"><ele>288.80374</ele><time>2026-04-08T19:05:03.000Z</time></trkpt>
        <trkpt lat="28.66598" lon="105.381157"><ele>287.49722</ele><time>2026-04-08T19:05:09.000Z</time></trkpt>
        <trkpt lat="28.666016" lon="105.381191"><ele>286.58768</ele><time>2026-04-08T19:05:16.000Z</time></trkpt>
        <trkpt lat="28.666056" lon="105.38122"><ele>286.3747</ele><time>2026-04-08T19:05:25.000Z</time></trkpt>
        <trkpt lat="28.666085" lon="105.38126"><ele>286.94302</ele><time>2026-04-08T19:05:31.000Z</time></trkpt>
        <trkpt lat="28.666122" lon="105.381299"><ele>286.42273</ele><time>2026-04-08T19:05:38.000Z</time></trkpt>
        <trkpt lat="28.666164" lon="105.381327"><ele>286.77106</ele><time>2026-04-08T19:05:44.000Z</time></trkpt>
        <trkpt lat="28.66621" lon="105.381338"><ele>286.97067</ele><time>2026-04-08T19:06:03.000Z</time></trkpt>
        <trkpt lat="28.666191" lon="105.38129"><ele>285.203</ele><time>2026-04-08T19:06:15.000Z</time></trkpt>
        <trkpt lat="28.666203" lon="105.381233"><ele>285.06946</ele><time>2026-04-08T19:06:21.000Z</time></trkpt>
        <trkpt lat="28.666199" lon="105.381174"><ele>284.10315</ele><time>2026-04-08T19:06:25.000Z</time></trkpt>
        <trkpt lat="28.666171" lon="105.381135"><ele>281.89316</ele><time>2026-04-08T19:06:29.000Z</time></trkpt>
        <trkpt lat="28.666181" lon="105.381083"><ele>274.31714</ele><time>2026-04-08T19:06:36.000Z</time></trkpt>
        <trkpt lat="28.666176" lon="105.381025"><ele>273.7114</ele><time>2026-04-08T19:06:40.000Z</time></trkpt>
        <trkpt lat="28.666144" lon="105.380979"><ele>269.9777</ele><time>2026-04-08T19:06:47.000Z</time></trkpt>
        <trkpt lat="28.666125" lon="105.380925"><ele>271.98233</ele><time>2026-04-08T19:06:59.000Z</time></trkpt>
        <trkpt lat="28.666098" lon="105.380875"><ele>271.06946</ele><time>2026-04-08T19:07:16.000Z</time></trkpt>
        <trkpt lat="28.666049" lon="105.380867"><ele>270.40112</ele><time>2026-04-08T19:07:38.000Z</time></trkpt>
        <trkpt lat="28.666005" lon="105.380849"><ele>271.69034</ele><time>2026-04-08T19:07:43.000Z</time></trkpt>
        <trkpt lat="28.665962" lon="105.38082"><ele>269.8253</ele><time>2026-04-08T19:07:53.000Z</time></trkpt>
        <trkpt lat="28.665914" lon="105.380807"><ele>270.49707</ele><time>2026-04-08T19:07:59.000Z</time></trkpt>
        <trkpt lat="28.665869" lon="105.380794"><ele>269.49384</ele><time>2026-04-08T19:08:05.000Z</time></trkpt>
        <trkpt lat="28.665816" lon="105.380783"><ele>269.99893</ele><time>2026-04-08T19:08:12.000Z</time></trkpt>
        <trkpt lat="28.665757" lon="105.380776"><ele>269.26816</ele><time>2026-04-08T19:08:19.000Z</time></trkpt>
        <trkpt lat="28.665713" lon="105.380763"><ele>269.52264</ele><time>2026-04-08T19:08:23.000Z</time></trkpt>
        <trkpt lat="28.665682" lon="105.380723"><ele>268.9735</ele><time>2026-04-08T19:08:29.000Z</time></trkpt>
        <trkpt lat="28.66564" lon="105.3807"><ele>266.67984</ele><time>2026-04-08T19:08:39.000Z</time></trkpt>
        <trkpt lat="28.665596" lon="105.380679"><ele>266.4808</ele><time>2026-04-08T19:08:45.000Z</time></trkpt>
        <trkpt lat="28.665553" lon="105.380649"><ele>266.51816</ele><time>2026-04-08T19:08:53.000Z</time></trkpt>
        <trkpt lat="28.665509" lon="105.380637"><ele>265.15695</ele><time>2026-04-08T19:09:02.000Z</time></trkpt>
        <trkpt lat="28.665524" lon="105.380584"><ele>263.16394</ele><time>2026-04-08T19:09:07.000Z</time></trkpt>
        <trkpt lat="28.665489" lon="105.380543"><ele>260.1928</ele><time>2026-04-08T19:09:21.000Z</time></trkpt>
        <trkpt lat="28.665446" lon="105.380517"><ele>259.6503</ele><time>2026-04-08T19:09:44.000Z</time></trkpt>
        <trkpt lat="28.665413" lon="105.380478"><ele>259.32535</ele><time>2026-04-08T19:09:53.000Z</time></trkpt>
        <trkpt lat="28.665371" lon="105.380457"><ele>256.9783</ele><time>2026-04-08T19:10:25.000Z</time></trkpt>
        <trkpt lat="28.665351" lon="105.380403"><ele>255.43697</ele><time>2026-04-08T19:10:33.000Z</time></trkpt>
        <trkpt lat="28.665304" lon="105.380405"><ele>255.22151</ele><time>2026-04-08T19:10:39.000Z</time></trkpt>
        <trkpt lat="28.665265" lon="105.380447"><ele>256.44516</ele><time>2026-04-08T19:10:47.000Z</time></trkpt>
        <trkpt lat="28.665222" lon="105.380418"><ele>254.64445</ele><time>2026-04-08T19:11:16.000Z</time></trkpt>
        <trkpt lat="28.66518" lon="105.380397"><ele>256.10834</ele><time>2026-04-08T19:11:20.000Z</time></trkpt>
        <trkpt lat="28.665135" lon="105.380402"><ele>256.07355</ele><time>2026-04-08T19:11:26.000Z</time></trkpt>
        <trkpt lat="28.665117" lon="105.380349"><ele>255.56487</ele><time>2026-04-08T19:11:31.000Z</time></trkpt>
        <trkpt lat="28.665151" lon="105.380309"><ele>252.76727</ele><time>2026-04-08T19:11:44.000Z</time></trkpt>
        <trkpt lat="28.665182" lon="105.380346"><ele>253.53963</ele><time>2026-04-08T19:11:53.000Z</time></trkpt>
        <trkpt lat="28.665209" lon="105.380391"><ele>254.5065</ele><time>2026-04-08T19:12:08.000Z</time></trkpt>
        <trkpt lat="28.665212" lon="105.38034"><ele>253.574</ele><time>2026-04-08T19:13:25.000Z</time></trkpt>
        <trkpt lat="28.665175" lon="105.380306"><ele>251.30042</ele><time>2026-04-08T19:13:44.000Z</time></trkpt>
        <trkpt lat="28.665126" lon="105.380297"><ele>253.05513</ele><time>2026-04-08T19:13:49.000Z</time></trkpt>
        <trkpt lat="28.66508" lon="105.380282"><ele>251.46869</ele><time>2026-04-08T19:13:53.000Z</time></trkpt>
        <trkpt lat="28.665033" lon="105.380276"><ele>251.80328</ele><time>2026-04-08T19:13:59.000Z</time></trkpt>
        <trkpt lat="28.664987" lon="105.380255"><ele>251.91383</ele><time>2026-04-08T19:14:04.000Z</time></trkpt>
        <trkpt lat="28.664935" lon="105.38024"><ele>252.08308</ele><time>2026-04-08T19:14:10.000Z</time></trkpt>
        <trkpt lat="28.664891" lon="105.380227"><ele>251.9441</ele><time>2026-04-08T19:14:15.000Z</time></trkpt>
        <trkpt lat="28.664843" lon="105.380221"><ele>252.73006</ele><time>2026-04-08T19:14:20.000Z</time></trkpt>
        <trkpt lat="28.664782" lon="105.380215"><ele>253.06456</ele><time>2026-04-08T19:14:25.000Z</time></trkpt>
        <trkpt lat="28.664733" lon="105.380203"><ele>254.23615</ele><time>2026-04-08T19:14:30.000Z</time></trkpt>
        <trkpt lat="28.664688" lon="105.380187"><ele>254.41911</ele><time>2026-04-08T19:14:36.000Z</time></trkpt>
        <trkpt lat="28.664641" lon="105.380177"><ele>254.15425</ele><time>2026-04-08T19:14:54.000Z</time></trkpt>
        <trkpt lat="28.664594" lon="105.380166"><ele>254.84833</ele><time>2026-04-08T19:15:38.000Z</time></trkpt>
        <trkpt lat="28.664549" lon="105.380152"><ele>255.07133</ele><time>2026-04-08T19:15:43.000Z</time></trkpt>
        <trkpt lat="28.664501" lon="105.380149"><ele>255.44293</ele><time>2026-04-08T19:16:14.000Z</time></trkpt>
        <trkpt lat="28.664459" lon="105.380129"><ele>254.46104</ele><time>2026-04-08T19:16:22.000Z</time></trkpt>
        <trkpt lat="28.664411" lon="105.380111"><ele>255.11516</ele><time>2026-04-08T19:16:52.000Z</time></trkpt>
        <trkpt lat="28.66436" lon="105.380107"><ele>255.4487</ele><time>2026-04-08T19:17:10.000Z</time></trkpt>
        <trkpt lat="28.66431" lon="105.38009"><ele>255.38222</ele><time>2026-04-08T19:17:17.000Z</time></trkpt>
        <trkpt lat="28.664266" lon="105.380067"><ele>254.48985</ele><time>2026-04-08T19:17:44.000Z</time></trkpt>
        <trkpt lat="28.664221" lon="105.380046"><ele>254.36642</ele><time>2026-04-08T19:18:00.000Z</time></trkpt>
        <trkpt lat="28.664191" lon="105.380004"><ele>253.32005</ele><time>2026-04-08T19:18:30.000Z</time></trkpt>
        <trkpt lat="28.664139" lon="105.380002"><ele>254.0294</ele><time>2026-04-08T19:18:36.000Z</time></trkpt>
        <trkpt lat="28.6641" lon="105.37997"><ele>253.64275</ele><time>2026-04-08T19:18:43.000Z</time></trkpt>
        <trkpt lat="28.664053" lon="105.379966"><ele>254.06294</ele><time>2026-04-08T19:18:51.000Z</time></trkpt>
        <trkpt lat="28.664005" lon="105.379954"><ele>252.87192</ele><time>2026-04-08T19:19:15.000Z</time></trkpt>
        <trkpt lat="28.663966" lon="105.379922"><ele>253.47961</ele><time>2026-04-08T19:19:21.000Z</time></trkpt>
        <trkpt lat="28.663915" lon="105.37993"><ele>253.59564</ele><time>2026-04-08T19:19:28.000Z</time></trkpt>
        <trkpt lat="28.663873" lon="105.379905"><ele>253.76451</ele><time>2026-04-08T19:20:08.000Z</time></trkpt>
        <trkpt lat="28.663826" lon="105.379888"><ele>254.2185</ele><time>2026-04-08T19:20:20.000Z</time></trkpt>
        <trkpt lat="28.663777" lon="105.379892"><ele>253.9032</ele><time>2026-04-08T19:20:40.000Z</time></trkpt>
        <trkpt lat="28.663796" lon="105.379834"><ele>252.93619</ele><time>2026-04-08T19:21:19.000Z</time></trkpt>
        <trkpt lat="28.663807" lon="105.379774"><ele>252.85068</ele><time>2026-04-08T19:21:26.000Z</time></trkpt>
        <trkpt lat="28.663807" lon="105.379711"><ele>251.4612</ele><time>2026-04-08T19:21:32.000Z</time></trkpt>
        <trkpt lat="28.66382" lon="105.379656"><ele>249.89145</ele><time>2026-04-08T19:21:38.000Z</time></trkpt>
        <trkpt lat="28.66382" lon="105.379601"><ele>249.42822</ele><time>2026-04-08T19:21:43.000Z</time></trkpt>
        <trkpt lat="28.663816" lon="105.37954"><ele>249.25746</ele><time>2026-04-08T19:21:49.000Z</time></trkpt>
        <trkpt lat="28.663819" lon="105.379594"><ele>249.93808</ele><time>2026-04-08T19:22:33.000Z</time></trkpt>
        <trkpt lat="28.663826" lon="105.379646"><ele>250.76555</ele><time>2026-04-08T19:22:39.000Z</time></trkpt>
        <trkpt lat="28.663815" lon="105.379706"><ele>251.41182</ele><time>2026-04-08T19:22:47.000Z</time></trkpt>
        <trkpt lat="28.663801" lon="105.379757"><ele>251.71458</ele><time>2026-04-08T19:22:54.000Z</time></trkpt>
        <trkpt lat="28.66379" lon="105.379816"><ele>253.22078</ele><time>2026-04-08T19:22:59.000Z</time></trkpt>
        <trkpt lat="28.663772" lon="105.379869"><ele>252.9836</ele><time>2026-04-08T19:23:05.000Z</time></trkpt>
        <trkpt lat="28.663749" lon="105.379913"><ele>254.64449</ele><time>2026-04-08T19:23:58.000Z</time></trkpt>
        <trkpt lat="28.66373" lon="105.379968"><ele>253.6423</ele><time>2026-04-08T19:24:16.000Z</time></trkpt>
        <trkpt lat="28.663716" lon="105.380025"><ele>252.94218</ele><time>2026-04-08T19:24:41.000Z</time></trkpt>
        <trkpt lat="28.663681" lon="105.380064"><ele>253.68748</ele><time>2026-04-08T19:24:57.000Z</time></trkpt>
        <trkpt lat="28.663669" lon="105.380113"><ele>254.04399</ele><time>2026-04-08T19:25:05.000Z</time></trkpt>
        <trkpt lat="28.663681" lon="105.380165"><ele>255.10858</ele><time>2026-04-08T19:25:20.000Z</time></trkpt>
        <trkpt lat="28.66373" lon="105.380182"><ele>255.41365</ele><time>2026-04-08T19:25:42.000Z</time></trkpt>
        <trkpt lat="28.663767" lon="105.380227"><ele>254.7591</ele><time>2026-04-08T19:25:49.000Z</time></trkpt>
        <trkpt lat="28.663772" lon="105.380279"><ele>255.58553</ele><time>2026-04-08T19:25:54.000Z</time></trkpt>
        <trkpt lat="28.663796" lon="105.380325"><ele>254.7951</ele><time>2026-04-08T19:26:15.000Z</time></trkpt>
        <trkpt lat="28.663795" lon="105.380378"><ele>255.10095</ele><time>2026-04-08T19:26:26.000Z</time></trkpt>
        <trkpt lat="28.663773" lon="105.380426"><ele>255.63339</ele><time>2026-04-08T19:26:47.000Z</time></trkpt>
        <trkpt lat="28.663765" lon="105.380483"><ele>254.49721</ele><time>2026-04-08T19:27:04.000Z</time></trkpt>
        <trkpt lat="28.663747" lon="105.380552"><ele>255.27483</ele><time>2026-04-08T19:27:10.000Z</time></trkpt>
        <trkpt lat="28.663755" lon="105.380621"><ele>255.13817</ele><time>2026-04-08T19:27:18.000Z</time></trkpt>
        <trkpt lat="28.663764" lon="105.380698"><ele>254.88875</ele><time>2026-04-08T19:27:26.000Z</time></trkpt>
        <trkpt lat="28.663766" lon="105.38076"><ele>255.74252</ele><time>2026-04-08T19:27:37.000Z</time></trkpt>
        <trkpt lat="28.663751" lon="105.380817"><ele>255.35394</ele><time>2026-04-08T19:27:43.000Z</time></trkpt>
        <trkpt lat="28.663712" lon="105.380851"><ele>255.42381</ele><time>2026-04-08T19:27:50.000Z</time></trkpt>
        <trkpt lat="28.663724" lon="105.380904"><ele>255.20108</ele><time>2026-04-08T19:28:05.000Z</time></trkpt>
        <trkpt lat="28.663731" lon="105.380962"><ele>255.66232</ele><time>2026-04-08T19:28:18.000Z</time></trkpt>
        <trkpt lat="28.663729" lon="105.381018"><ele>255.52338</ele><time>2026-04-08T19:28:27.000Z</time></trkpt>
        <trkpt lat="28.663748" lon="105.381086"><ele>254.40564</ele><time>2026-04-08T19:28:32.000Z</time></trkpt>
        <trkpt lat="28.663736" lon="105.381139"><ele>255.3404</ele><time>2026-04-08T19:28:56.000Z</time></trkpt>
        <trkpt lat="28.663744" lon="105.381191"><ele>255.42686</ele><time>2026-04-08T19:29:05.000Z</time></trkpt>
        <trkpt lat="28.663742" lon="105.381244"><ele>255.63086</ele><time>2026-04-08T19:29:58.000Z</time></trkpt>
        <trkpt lat="28.663747" lon="105.381299"><ele>254.98409</ele><time>2026-04-08T19:30:05.000Z</time></trkpt>
        <trkpt lat="28.663748" lon="105.381352"><ele>254.8711</ele><time>2026-04-08T19:30:12.000Z</time></trkpt>
        <trkpt lat="28.663758" lon="105.381404"><ele>254.47223</ele><time>2026-04-08T19:30:23.000Z</time></trkpt>
        <trkpt lat="28.663762" lon="105.381461"><ele>254.5168</ele><time>2026-04-08T19:30:35.000Z</time></trkpt>
        <trkpt lat="28.663757" lon="105.381513"><ele>253.77826</ele><time>2026-04-08T19:30:44.000Z</time></trkpt>
        <trkpt lat="28.663725" lon="105.381559"><ele>254.70291</ele><time>2026-04-08T19:30:52.000Z</time></trkpt>
        <trkpt lat="28.663714" lon="105.381609"><ele>254.09952</ele><time>2026-04-08T19:30:59.000Z</time></trkpt>
        <trkpt lat="28.663668" lon="105.381613"><ele>254.75307</ele><time>2026-04-08T19:31:01.000Z</time></trkpt>
        <trkpt lat="28.663631" lon="105.381651"><ele>253.73062</ele><time>2026-04-08T19:31:11.000Z</time></trkpt>
        <trkpt lat="28.663585" lon="105.381673"><ele>252.2232</ele><time>2026-04-08T19:31:18.000Z</time></trkpt>
        <trkpt lat="28.663544" lon="105.381696"><ele>252.52391</ele><time>2026-04-08T19:31:24.000Z</time></trkpt>
        <trkpt lat="28.663514" lon="105.381745"><ele>252.72815</ele><time>2026-04-08T19:31:30.000Z</time></trkpt>
        <trkpt lat="28.663483" lon="105.381794"><ele>252.72635</ele><time>2026-04-08T19:31:36.000Z</time></trkpt>
        <trkpt lat="28.66346" lon="105.381848"><ele>253.07307</ele><time>2026-04-08T19:31:40.000Z</time></trkpt>
        <trkpt lat="28.663462" lon="105.3819"><ele>252.44919</ele><time>2026-04-08T19:31:45.000Z</time></trkpt>
        <trkpt lat="28.663478" lon="105.381955"><ele>252.95403</ele><time>2026-04-08T19:31:51.000Z</time></trkpt>
        <trkpt lat="28.66349" lon="105.382005"><ele>253.08589</ele><time>2026-04-08T19:31:57.000Z</time></trkpt>
        <trkpt lat="28.663509" lon="105.382054"><ele>252.98877</ele><time>2026-04-08T19:32:08.000Z</time></trkpt>
        <trkpt lat="28.663515" lon="105.382108"><ele>253.46161</ele><time>2026-04-08T19:32:13.000Z</time></trkpt>
        <trkpt lat="28.663541" lon="105.382159"><ele>254.10982</ele><time>2026-04-08T19:32:18.000Z</time></trkpt>
        <trkpt lat="28.663561" lon="105.382209"><ele>254.72186</ele><time>2026-04-08T19:32:24.000Z</time></trkpt>
        <trkpt lat="28.663572" lon="105.382261"><ele>255.72697</ele><time>2026-04-08T19:32:29.000Z</time></trkpt>
        <trkpt lat="28.663594" lon="105.38231"><ele>253.5762</ele><time>2026-04-08T19:32:44.000Z</time></trkpt>
        <trkpt lat="28.663601" lon="105.382369"><ele>254.73424</ele><time>2026-04-08T19:32:57.000Z</time></trkpt>
        <trkpt lat="28.663603" lon="105.382433"><ele>253.94942</ele><time>2026-04-08T19:33:03.000Z</time></trkpt>
        <trkpt lat="28.66359" lon="105.382483"><ele>253.69421</ele><time>2026-04-08T19:33:08.000Z</time></trkpt>
        <trkpt lat="28.663567" lon="105.382542"><ele>253.8232</ele><time>2026-04-08T19:33:12.000Z</time></trkpt>
        <trkpt lat="28.66356" lon="105.382608"><ele>254.52641</ele><time>2026-04-08T19:33:18.000Z</time></trkpt>
        <trkpt lat="28.663522" lon="105.382647"><ele>255.19255</ele><time>2026-04-08T19:33:23.000Z</time></trkpt>
        <trkpt lat="28.663488" lon="105.382683"><ele>255.32123</ele><time>2026-04-08T19:33:27.000Z</time></trkpt>
        <trkpt lat="28.663433" lon="105.382698"><ele>254.89085</ele><time>2026-04-08T19:33:33.000Z</time></trkpt>
        <trkpt lat="28.663393" lon="105.382723"><ele>254.25308</ele><time>2026-04-08T19:33:37.000Z</time></trkpt>
        <trkpt lat="28.663347" lon="105.382754"><ele>253.36455</ele><time>2026-04-08T19:33:42.000Z</time></trkpt>
        <trkpt lat="28.663302" lon="105.382777"><ele>252.43927</ele><time>2026-04-08T19:33:57.000Z</time></trkpt>
        <trkpt lat="28.663261" lon="105.382802"><ele>252.55211</ele><time>2026-04-08T19:34:02.000Z</time></trkpt>
        <trkpt lat="28.663223" lon="105.382842"><ele>252.26524</ele><time>2026-04-08T19:34:08.000Z</time></trkpt>
        <trkpt lat="28.663198" lon="105.38289"><ele>252.08447</ele><time>2026-04-08T19:34:15.000Z</time></trkpt>
        <trkpt lat="28.663182" lon="105.38295"><ele>251.37555</ele><time>2026-04-08T19:34:23.000Z</time></trkpt>
        <trkpt lat="28.663173" lon="105.383002"><ele>251.08879</ele><time>2026-04-08T19:34:30.000Z</time></trkpt>
        <trkpt lat="28.663161" lon="105.383053"><ele>250.47876</ele><time>2026-04-08T19:34:38.000Z</time></trkpt>
        <trkpt lat="28.663122" lon="105.383084"><ele>250.91144</ele><time>2026-04-08T19:34:44.000Z</time></trkpt>
        <trkpt lat="28.66307" lon="105.383085"><ele>249.49269</ele><time>2026-04-08T19:35:03.000Z</time></trkpt>
        <trkpt lat="28.663018" lon="105.383114"><ele>250.1793</ele><time>2026-04-08T19:35:11.000Z</time></trkpt>
        <trkpt lat="28.662933" lon="105.383146"><ele>251.35365</ele><time>2026-04-08T19:36:30.000Z</time></trkpt>
        <trkpt lat="28.662947" lon="105.383202"><ele>249.63486</ele><time>2026-04-08T19:37:03.000Z</time></trkpt>
        <trkpt lat="28.662938" lon="105.383259"><ele>250.80203</ele><time>2026-04-08T19:37:11.000Z</time></trkpt>
        <trkpt lat="28.662949" lon="105.383312"><ele>251.5459</ele><time>2026-04-08T19:37:34.000Z</time></trkpt>
        <trkpt lat="28.662973" lon="105.383359"><ele>251.26152</ele><time>2026-04-08T19:37:41.000Z</time></trkpt>
        <trkpt lat="28.663005" lon="105.383405"><ele>251.67535</ele><time>2026-04-08T19:38:01.000Z</time></trkpt>
        <trkpt lat="28.663042" lon="105.383436"><ele>251.44685</ele><time>2026-04-08T19:38:11.000Z</time></trkpt>
        <trkpt lat="28.663036" lon="105.383491"><ele>249.60007</ele><time>2026-04-08T19:38:15.000Z</time></trkpt>
        <trkpt lat="28.663027" lon="105.383556"><ele>251.67572</ele><time>2026-04-08T19:38:21.000Z</time></trkpt>
        <trkpt lat="28.663028" lon="105.383609"><ele>252.16484</ele><time>2026-04-08T19:38:25.000Z</time></trkpt>
        <trkpt lat="28.663004" lon="105.383667"><ele>252.15106</ele><time>2026-04-08T19:38:40.000Z</time></trkpt>
        <trkpt lat="28.663017" lon="105.383717"><ele>252.95445</ele><time>2026-04-08T19:38:45.000Z</time></trkpt>
        <trkpt lat="28.663022" lon="105.383769"><ele>254.04771</ele><time>2026-04-08T19:38:51.000Z</time></trkpt>
        <trkpt lat="28.663031" lon="105.38383"><ele>254.1141</ele><time>2026-04-08T19:38:58.000Z</time></trkpt>
        <trkpt lat="28.663053" lon="105.383876"><ele>254.08003</ele><time>2026-04-08T19:39:03.000Z</time></trkpt>
        <trkpt lat="28.663072" lon="105.383924"><ele>253.89555</ele><time>2026-04-08T19:39:08.000Z</time></trkpt>
        <trkpt lat="28.6631" lon="105.383966"><ele>253.72046</ele><time>2026-04-08T19:39:12.000Z</time></trkpt>
        <trkpt lat="28.663155" lon="105.383945"><ele>253.52075</ele><time>2026-04-08T19:39:54.000Z</time></trkpt>
        <trkpt lat="28.663122" lon="105.38398"><ele>253.58914</ele><time>2026-04-08T19:40:42.000Z</time></trkpt>
        <trkpt lat="28.663078" lon="105.383996"><ele>254.94637</ele><time>2026-04-08T19:40:51.000Z</time></trkpt>
        <trkpt lat="28.663029" lon="105.383973"><ele>252.9638</ele><time>2026-04-08T19:41:01.000Z</time></trkpt>
        <trkpt lat="28.662999" lon="105.383935"><ele>254.90419</ele><time>2026-04-08T19:41:11.000Z</time></trkpt>
        <trkpt lat="28.662953" lon="105.383933"><ele>257.06158</ele><time>2026-04-08T19:41:20.000Z</time></trkpt>
        <trkpt lat="28.662937" lon="105.383983"><ele>256.85654</ele><time>2026-04-08T19:41:25.000Z</time></trkpt>
        <trkpt lat="28.662939" lon="105.384037"><ele>257.26846</ele><time>2026-04-08T19:41:30.000Z</time></trkpt>
        <trkpt lat="28.662938" lon="105.384091"><ele>259.2433</ele><time>2026-04-08T19:41:41.000Z</time></trkpt>
        <trkpt lat="28.662926" lon="105.384144"><ele>258.62033</ele><time>2026-04-08T19:42:02.000Z</time></trkpt>
        <trkpt lat="28.662919" lon="105.384204"><ele>259.8316</ele><time>2026-04-08T19:42:10.000Z</time></trkpt>
        <trkpt lat="28.662903" lon="105.384253"><ele>259.66727</ele><time>2026-04-08T19:42:15.000Z</time></trkpt>
        <trkpt lat="28.662891" lon="105.384303"><ele>261.3934</ele><time>2026-04-08T19:42:20.000Z</time></trkpt>
        <trkpt lat="28.662881" lon="105.384354"><ele>262.21085</ele><time>2026-04-08T19:42:29.000Z</time></trkpt>
        <trkpt lat="28.662884" lon="105.384407"><ele>262.78894</ele><time>2026-04-08T19:42:37.000Z</time></trkpt>
        <trkpt lat="28.662881" lon="105.384465"><ele>262.28708</ele><time>2026-04-08T19:42:44.000Z</time></trkpt>
        <trkpt lat="28.662876" lon="105.384517"><ele>263.89865</ele><time>2026-04-08T19:42:51.000Z</time></trkpt>
        <trkpt lat="28.662865" lon="105.384566"><ele>263.93958</ele><time>2026-04-08T19:43:09.000Z</time></trkpt>
        <trkpt lat="28.662843" lon="105.384616"><ele>264.79456</ele><time>2026-04-08T19:43:29.000Z</time></trkpt>
        <trkpt lat="28.662833" lon="105.38467"><ele>264.49982</ele><time>2026-04-08T19:43:58.000Z</time></trkpt>
        <trkpt lat="28.662795" lon="105.384705"><ele>265.15256</ele><time>2026-04-08T19:44:12.000Z</time></trkpt>
        <trkpt lat="28.662764" lon="105.384744"><ele>267.42288</ele><time>2026-04-08T19:44:31.000Z</time></trkpt>
        <trkpt lat="28.662705" lon="105.384755"><ele>268.56442</ele><time>2026-04-08T19:44:45.000Z</time></trkpt>
        <trkpt lat="28.662678" lon="105.3848"><ele>270.74942</ele><time>2026-04-08T19:45:01.000Z</time></trkpt>
        <trkpt lat="28.662629" lon="105.384792"><ele>270.29745</ele><time>2026-04-08T19:45:08.000Z</time></trkpt>
        <trkpt lat="28.662618" lon="105.384842"><ele>273.8737</ele><time>2026-04-08T19:45:21.000Z</time></trkpt>
        <trkpt lat="28.662626" lon="105.384893"><ele>275.1154</ele><time>2026-04-08T19:45:26.000Z</time></trkpt>
        <trkpt lat="28.662619" lon="105.384948"><ele>273.03427</ele><time>2026-04-08T19:46:28.000Z</time></trkpt>
        <trkpt lat="28.662615" lon="105.384999"><ele>273.8368</ele><time>2026-04-08T19:46:37.000Z</time></trkpt>
        <trkpt lat="28.662634" lon="105.385053"><ele>274.48486</ele><time>2026-04-08T19:46:49.000Z</time></trkpt>
        <trkpt lat="28.662642" lon="105.385103"><ele>273.14236</ele><time>2026-04-08T19:46:56.000Z</time></trkpt>
        <trkpt lat="28.66264" lon="105.38517"><ele>273.3405</ele><time>2026-04-08T19:47:01.000Z</time></trkpt>
        <trkpt lat="28.662662" lon="105.385222"><ele>272.81934</ele><time>2026-04-08T19:47:05.000Z</time></trkpt>
        <trkpt lat="28.662659" lon="105.385278"><ele>272.16733</ele><time>2026-04-08T19:47:09.000Z</time></trkpt>
        <trkpt lat="28.662676" lon="105.385336"><ele>272.33286</ele><time>2026-04-08T19:47:15.000Z</time></trkpt>
        <trkpt lat="28.662688" lon="105.385386"><ele>271.5129</ele><time>2026-04-08T19:47:21.000Z</time></trkpt>
        <trkpt lat="28.662693" lon="105.385443"><ele>271.09198</ele><time>2026-04-08T19:47:28.000Z</time></trkpt>
        <trkpt lat="28.662722" lon="105.385484"><ele>271.21234</ele><time>2026-04-08T19:47:33.000Z</time></trkpt>
        <trkpt lat="28.662729" lon="105.385536"><ele>270.0372</ele><time>2026-04-08T19:47:41.000Z</time></trkpt>
        <trkpt lat="28.662737" lon="105.385596"><ele>269.87534</ele><time>2026-04-08T19:47:47.000Z</time></trkpt>
        <trkpt lat="28.662771" lon="105.385635"><ele>270.47473</ele><time>2026-04-08T19:47:53.000Z</time></trkpt>
        <trkpt lat="28.662799" lon="105.385684"><ele>271.30307</ele><time>2026-04-08T19:48:01.000Z</time></trkpt>
        <trkpt lat="28.662803" lon="105.385737"><ele>271.9401</ele><time>2026-04-08T19:48:06.000Z</time></trkpt>
        <trkpt lat="28.662826" lon="105.385782"><ele>271.76126</ele><time>2026-04-08T19:48:13.000Z</time></trkpt>
        <trkpt lat="28.662861" lon="105.385827"><ele>271.83533</ele><time>2026-04-08T19:48:21.000Z</time></trkpt>
        <trkpt lat="28.662881" lon="105.385874"><ele>270.95435</ele><time>2026-04-08T19:48:30.000Z</time></trkpt>
        <trkpt lat="28.662919" lon="105.385912"><ele>270.83182</ele><time>2026-04-08T19:48:37.000Z</time></trkpt>
        <trkpt lat="28.662936" lon="105.385967"><ele>271.62405</ele><time>2026-04-08T19:48:43.000Z</time></trkpt>
        <trkpt lat="28.662947" lon="105.386018"><ele>271.45035</ele><time>2026-04-08T19:48:48.000Z</time></trkpt>
        <trkpt lat="28.662963" lon="105.386068"><ele>271.82074</ele><time>2026-04-08T19:48:55.000Z</time></trkpt>
        <trkpt lat="28.662974" lon="105.386126"><ele>272.87006</ele><time>2026-04-08T19:49:02.000Z</time></trkpt>
        <trkpt lat="28.662985" lon="105.38618"><ele>272.86545</ele><time>2026-04-08T19:49:07.000Z</time></trkpt>
        <trkpt lat="28.662989" lon="105.386234"><ele>272.4057</ele><time>2026-04-08T19:49:13.000Z</time></trkpt>
        <trkpt lat="28.663003" lon="105.386289"><ele>271.58643</ele><time>2026-04-08T19:49:18.000Z</time></trkpt>
        <trkpt lat="28.663005" lon="105.386344"><ele>272.46356</ele><time>2026-04-08T19:49:23.000Z</time></trkpt>
        <trkpt lat="28.663018" lon="105.386398"><ele>272.59805</ele><time>2026-04-08T19:49:29.000Z</time></trkpt>
        <trkpt lat="28.663005" lon="105.386448"><ele>272.75204</ele><time>2026-04-08T19:49:32.000Z</time></trkpt>
        <trkpt lat="28.662998" lon="105.386501"><ele>273.04004</ele><time>2026-04-08T19:49:38.000Z</time></trkpt>
        <trkpt lat="28.663003" lon="105.386556"><ele>272.8434</ele><time>2026-04-08T19:49:43.000Z</time></trkpt>
        <trkpt lat="28.662983" lon="105.386615"><ele>272.48914</ele><time>2026-04-08T19:49:49.000Z</time></trkpt>
        <trkpt lat="28.662969" lon="105.386665"><ele>272.76834</ele><time>2026-04-08T19:49:55.000Z</time></trkpt>
        <trkpt lat="28.662971" lon="105.386734"><ele>272.57303</ele><time>2026-04-08T19:50:02.000Z</time></trkpt>
        <trkpt lat="28.662967" lon="105.386787"><ele>271.9214</ele><time>2026-04-08T19:50:09.000Z</time></trkpt>
        <trkpt lat="28.662949" lon="105.386843"><ele>270.75183</ele><time>2026-04-08T19:50:14.000Z</time></trkpt>
        <trkpt lat="28.662948" lon="105.386895"><ele>271.86697</ele><time>2026-04-08T19:50:28.000Z</time></trkpt>
        <trkpt lat="28.662955" lon="105.386959"><ele>271.6004</ele><time>2026-04-08T19:50:34.000Z</time></trkpt>
        <trkpt lat="28.662963" lon="105.387016"><ele>272.11685</ele><time>2026-04-08T19:50:39.000Z</time></trkpt>
        <trkpt lat="28.662959" lon="105.387075"><ele>272.18445</ele><time>2026-04-08T19:50:45.000Z</time></trkpt>
        <trkpt lat="28.662951" lon="105.387134"><ele>271.59708</ele><time>2026-04-08T19:50:51.000Z</time></trkpt>
        <trkpt lat="28.662945" lon="105.387192"><ele>272.03906</ele><time>2026-04-08T19:50:57.000Z</time></trkpt>
        <trkpt lat="28.66294" lon="105.387248"><ele>271.84586</ele><time>2026-04-08T19:51:03.000Z</time></trkpt>
        <trkpt lat="28.662946" lon="105.387316"><ele>272.26712</ele><time>2026-04-08T19:51:10.000Z</time></trkpt>
        <trkpt lat="28.662947" lon="105.387374"><ele>272.41357</ele><time>2026-04-08T19:51:16.000Z</time></trkpt>
        <trkpt lat="28.662944" lon="105.387427"><ele>271.39166</ele><time>2026-04-08T19:51:21.000Z</time></trkpt>
        <trkpt lat="28.662961" lon="105.387482"><ele>272.20248</ele><time>2026-04-08T19:51:29.000Z</time></trkpt>
        <trkpt lat="28.662964" lon="105.38755"><ele>272.0678</ele><time>2026-04-08T19:51:35.000Z</time></trkpt>
        <trkpt lat="28.662973" lon="105.387609"><ele>270.53976</ele><time>2026-04-08T19:51:42.000Z</time></trkpt>
        <trkpt lat="28.662965" lon="105.387663"><ele>269.51</ele><time>2026-04-08T19:51:48.000Z</time></trkpt>
        <trkpt lat="28.662966" lon="105.387714"><ele>270.53384</ele><time>2026-04-08T19:51:54.000Z</time></trkpt>
        <trkpt lat="28.662964" lon="105.387783"><ele>271.0246</ele><time>2026-04-08T19:52:05.000Z</time></trkpt>
        <trkpt lat="28.662947" lon="105.387833"><ele>269.98877</ele><time>2026-04-08T19:52:13.000Z</time></trkpt>
        <trkpt lat="28.662916" lon="105.387881"><ele>270.504</ele><time>2026-04-08T19:52:19.000Z</time></trkpt>
        <trkpt lat="28.662884" lon="105.387924"><ele>271.5037</ele><time>2026-04-08T19:52:24.000Z</time></trkpt>
        <trkpt lat="28.662856" lon="105.387967"><ele>271.81335</ele><time>2026-04-08T19:52:30.000Z</time></trkpt>
        <trkpt lat="28.662824" lon="105.388025"><ele>272.83038</ele><time>2026-04-08T19:52:37.000Z</time></trkpt>
        <trkpt lat="28.662806" lon="105.388079"><ele>272.6449</ele><time>2026-04-08T19:52:43.000Z</time></trkpt>
        <trkpt lat="28.662785" lon="105.388126"><ele>272.91165</ele><time>2026-04-08T19:52:48.000Z</time></trkpt>
        <trkpt lat="28.66277" lon="105.388195"><ele>273.2777</ele><time>2026-04-08T19:52:54.000Z</time></trkpt>
        <trkpt lat="28.662752" lon="105.38825"><ele>272.615</ele><time>2026-04-08T19:53:04.000Z</time></trkpt>
        <trkpt lat="28.662737" lon="105.388306"><ele>272.6433</ele><time>2026-04-08T19:53:10.000Z</time></trkpt>
        <trkpt lat="28.662742" lon="105.388361"><ele>272.548</ele><time>2026-04-08T19:53:18.000Z</time></trkpt>
        <trkpt lat="28.66273" lon="105.388413"><ele>272.72278</ele><time>2026-04-08T19:53:23.000Z</time></trkpt>
        <trkpt lat="28.662729" lon="105.388466"><ele>272.64227</ele><time>2026-04-08T19:53:29.000Z</time></trkpt>
        <trkpt lat="28.66272" lon="105.388519"><ele>272.11072</ele><time>2026-04-08T19:53:34.000Z</time></trkpt>
        <trkpt lat="28.66272" lon="105.388571"><ele>273.19647</ele><time>2026-04-08T19:53:43.000Z</time></trkpt>
        <trkpt lat="28.662723" lon="105.388626"><ele>272.71533</ele><time>2026-04-08T19:53:49.000Z</time></trkpt>
        <trkpt lat="28.662716" lon="105.38869"><ele>272.75146</ele><time>2026-04-08T19:53:57.000Z</time></trkpt>
        <trkpt lat="28.662711" lon="105.388743"><ele>271.75735</ele><time>2026-04-08T19:54:07.000Z</time></trkpt>
        <trkpt lat="28.66269" lon="105.388796"><ele>272.0286</ele><time>2026-04-08T19:54:15.000Z</time></trkpt>
        <trkpt lat="28.662688" lon="105.388849"><ele>272.7756</ele><time>2026-04-08T19:54:22.000Z</time></trkpt>
        <trkpt lat="28.662661" lon="105.388891"><ele>271.86957</ele><time>2026-04-08T19:54:54.000Z</time></trkpt>
        <trkpt lat="28.662618" lon="105.388926"><ele>272.46185</ele><time>2026-04-08T19:55:02.000Z</time></trkpt>
        <trkpt lat="28.662584" lon="105.388972"><ele>273.81558</ele><time>2026-04-08T19:55:45.000Z</time></trkpt>
        <trkpt lat="28.662539" lon="105.388991"><ele>273.00357</ele><time>2026-04-08T19:55:51.000Z</time></trkpt>
        <trkpt lat="28.662519" lon="105.389041"><ele>273.2917</ele><time>2026-04-08T19:55:58.000Z</time></trkpt>
        <trkpt lat="28.662504" lon="105.389095"><ele>272.7079</ele><time>2026-04-08T19:56:05.000Z</time></trkpt>
        <trkpt lat="28.662477" lon="105.389138"><ele>273.70163</ele><time>2026-04-08T19:56:16.000Z</time></trkpt>
        <trkpt lat="28.662443" lon="105.389175"><ele>275.1452</ele><time>2026-04-08T19:56:28.000Z</time></trkpt>
        <trkpt lat="28.66243" lon="105.38923"><ele>274.5121</ele><time>2026-04-08T19:56:34.000Z</time></trkpt>
        <trkpt lat="28.662385" lon="105.389251"><ele>273.4218</ele><time>2026-04-08T19:56:40.000Z</time></trkpt>
        <trkpt lat="28.662352" lon="105.389286"><ele>273.39078</ele><time>2026-04-08T19:56:45.000Z</time></trkpt>
        <trkpt lat="28.662325" lon="105.389328"><ele>274.3161</ele><time>2026-04-08T19:56:52.000Z</time></trkpt>
        <trkpt lat="28.662279" lon="105.389367"><ele>272.8429</ele><time>2026-04-08T19:57:19.000Z</time></trkpt>
        <trkpt lat="28.662247" lon="105.389404"><ele>273.72116</ele><time>2026-04-08T19:57:26.000Z</time></trkpt>
        <trkpt lat="28.662221" lon="105.389449"><ele>274.18045</ele><time>2026-04-08T19:57:32.000Z</time></trkpt>
        <trkpt lat="28.662177" lon="105.389477"><ele>275.79633</ele><time>2026-04-08T19:57:53.000Z</time></trkpt>
        <trkpt lat="28.662141" lon="105.389515"><ele>276.06097</ele><time>2026-04-08T19:57:57.000Z</time></trkpt>
        <trkpt lat="28.662084" lon="105.389528"><ele>275.91718</ele><time>2026-04-08T19:58:03.000Z</time></trkpt>
        <trkpt lat="28.662038" lon="105.389535"><ele>276.2193</ele><time>2026-04-08T19:58:08.000Z</time></trkpt>
        <trkpt lat="28.661987" lon="105.389537"><ele>280.1491</ele><time>2026-04-08T19:58:12.000Z</time></trkpt>
        <trkpt lat="28.661932" lon="105.389512"><ele>283.53305</ele><time>2026-04-08T19:58:18.000Z</time></trkpt>
        <trkpt lat="28.661884" lon="105.389522"><ele>286.84995</ele><time>2026-04-08T19:58:25.000Z</time></trkpt>
        <trkpt lat="28.661839" lon="105.389537"><ele>287.74625</ele><time>2026-04-08T19:58:30.000Z</time></trkpt>
        <trkpt lat="28.661785" lon="105.389545"><ele>288.7437</ele><time>2026-04-08T19:58:35.000Z</time></trkpt>
        <trkpt lat="28.661734" lon="105.389566"><ele>291.0345</ele><time>2026-04-08T19:58:40.000Z</time></trkpt>
        <trkpt lat="28.661703" lon="105.389614"><ele>293.92175</ele><time>2026-04-08T19:58:47.000Z</time></trkpt>
        <trkpt lat="28.661729" lon="105.389659"><ele>295.09042</ele><time>2026-04-08T19:59:15.000Z</time></trkpt>
        <trkpt lat="28.661737" lon="105.389711"><ele>294.4005</ele><time>2026-04-08T19:59:21.000Z</time></trkpt>
        <trkpt lat="28.661751" lon="105.389765"><ele>293.11285</ele><time>2026-04-08T19:59:30.000Z</time></trkpt>
        <trkpt lat="28.661746" lon="105.389817"><ele>294.63718</ele><time>2026-04-08T19:59:38.000Z</time></trkpt>
        <trkpt lat="28.661749" lon="105.389748"><ele>288.5267</ele><time>2026-04-08T20:11:04.000Z</time></trkpt>
        <trkpt lat="28.661802" lon="105.389782"><ele>287.32104</ele><time>2026-04-08T20:18:51.000Z</time></trkpt>
        <trkpt lat="28.661801" lon="105.389839"><ele>289.4693</ele><time>2026-04-08T20:19:03.000Z</time></trkpt>
        <trkpt lat="28.66176" lon="105.389876"><ele>290.2874</ele><time>2026-04-08T20:19:08.000Z</time></trkpt>
        <trkpt lat="28.661718" lon="105.389896"><ele>287.55014</ele><time>2026-04-08T20:19:24.000Z</time></trkpt>
        <trkpt lat="28.661682" lon="105.389927"><ele>297.3923</ele><time>2026-04-08T20:19:40.000Z</time></trkpt>
        <trkpt lat="28.661694" lon="105.389876"><ele>301.3662</ele><time>2026-04-08T20:19:48.000Z</time></trkpt>
        <trkpt lat="28.661663" lon="105.389838"><ele>300.9218</ele><time>2026-04-08T20:19:58.000Z</time></trkpt>
        <trkpt lat="28.661611" lon="105.389837"><ele>300.71814</ele><time>2026-04-08T20:20:09.000Z</time></trkpt>
        <trkpt lat="28.66157" lon="105.389815"><ele>304.62158</ele><time>2026-04-08T20:20:44.000Z</time></trkpt>
        <trkpt lat="28.661528" lon="105.389785"><ele>305.09534</ele><time>2026-04-08T20:20:53.000Z</time></trkpt>
        <trkpt lat="28.661481" lon="105.389765"><ele>304.95642</ele><time>2026-04-08T20:21:01.000Z</time></trkpt>
        <trkpt lat="28.661435" lon="105.389771"><ele>306.49808</ele><time>2026-04-08T20:21:07.000Z</time></trkpt>
        <trkpt lat="28.661397" lon="105.389731"><ele>309.47485</ele><time>2026-04-08T20:21:12.000Z</time></trkpt>
        <trkpt lat="28.661351" lon="105.389726"><ele>312.1769</ele><time>2026-04-08T20:21:18.000Z</time></trkpt>
        <trkpt lat="28.661309" lon="105.389696"><ele>312.75635</ele><time>2026-04-08T20:21:26.000Z</time></trkpt>
        <trkpt lat="28.66125" lon="105.389703"><ele>312.9852</ele><time>2026-04-08T20:21:48.000Z</time></trkpt>
        <trkpt lat="28.661227" lon="105.389748"><ele>312.52338</ele><time>2026-04-08T20:21:59.000Z</time></trkpt>
        <trkpt lat="28.661181" lon="105.389745"><ele>312.63333</ele><time>2026-04-08T20:22:08.000Z</time></trkpt>
        <trkpt lat="28.661138" lon="105.389771"><ele>312.5414</ele><time>2026-04-08T20:22:22.000Z</time></trkpt>
        <trkpt lat="28.661092" lon="105.389781"><ele>309.1463</ele><time>2026-04-08T20:22:31.000Z</time></trkpt>
        <trkpt lat="28.66105" lon="105.389804"><ele>301.93607</ele><time>2026-04-08T20:22:43.000Z</time></trkpt>
        <trkpt lat="28.661002" lon="105.389791"><ele>299.15408</ele><time>2026-04-08T20:22:56.000Z</time></trkpt>
        <trkpt lat="28.660966" lon="105.389827"><ele>299.30124</ele><time>2026-04-08T20:23:06.000Z</time></trkpt>
        <trkpt lat="28.660933" lon="105.389773"><ele>303.1572</ele><time>2026-04-08T20:23:18.000Z</time></trkpt>
        <trkpt lat="28.660888" lon="105.389755"><ele>306.9071</ele><time>2026-04-08T20:23:31.000Z</time></trkpt>
        <trkpt lat="28.660914" lon="105.389807"><ele>307.0541</ele><time>2026-04-08T20:24:23.000Z</time></trkpt>
        <trkpt lat="28.660917" lon="105.389866"><ele>308.61194</ele><time>2026-04-08T20:24:35.000Z</time></trkpt>
        <trkpt lat="28.660901" lon="105.389916"><ele>304.30173</ele><time>2026-04-08T20:24:44.000Z</time></trkpt>
        <trkpt lat="28.660873" lon="105.389958"><ele>314.57654</ele><time>2026-04-08T20:25:04.000Z</time></trkpt>
        <trkpt lat="28.660828" lon="105.389968"><ele>314.6423</ele><time>2026-04-08T20:25:11.000Z</time></trkpt>
        <trkpt lat="28.660779" lon="105.38995"><ele>318.44263</ele><time>2026-04-08T20:25:20.000Z</time></trkpt>
        <trkpt lat="28.660758" lon="105.389902"><ele>328.84808</ele><time>2026-04-08T20:25:31.000Z</time></trkpt>
        <trkpt lat="28.660708" lon="105.389889"><ele>331.5701</ele><time>2026-04-08T20:25:42.000Z</time></trkpt>
        <trkpt lat="28.660662" lon="105.389865"><ele>333.74567</ele><time>2026-04-08T20:25:50.000Z</time></trkpt>
        <trkpt lat="28.660611" lon="105.389843"><ele>331.68246</ele><time>2026-04-08T20:25:58.000Z</time></trkpt>
        <trkpt lat="28.660556" lon="105.389828"><ele>330.1753</ele><time>2026-04-08T20:26:08.000Z</time></trkpt>
        <trkpt lat="28.660509" lon="105.389816"><ele>330.87613</ele><time>2026-04-08T20:26:14.000Z</time></trkpt>
        <trkpt lat="28.660465" lon="105.389792"><ele>330.81506</ele><time>2026-04-08T20:26:23.000Z</time></trkpt>
        <trkpt lat="28.660423" lon="105.389813"><ele>330.0925</ele><time>2026-04-08T20:26:39.000Z</time></trkpt>
        <trkpt lat="28.660441" lon="105.389765"><ele>332.44342</ele><time>2026-04-08T20:26:45.000Z</time></trkpt>
        <trkpt lat="28.660396" lon="105.389758"><ele>327.94437</ele><time>2026-04-08T20:26:58.000Z</time></trkpt>
        <trkpt lat="28.660346" lon="105.38978"><ele>326.57568</ele><time>2026-04-08T20:27:06.000Z</time></trkpt>
        <trkpt lat="28.660304" lon="105.389802"><ele>324.5639</ele><time>2026-04-08T20:27:16.000Z</time></trkpt>
        <trkpt lat="28.66025" lon="105.389789"><ele>325.98642</ele><time>2026-04-08T20:27:27.000Z</time></trkpt>
        <trkpt lat="28.660206" lon="105.38977"><ele>326.05576</ele><time>2026-04-08T20:27:32.000Z</time></trkpt>
        <trkpt lat="28.660173" lon="105.389733"><ele>326.11093</ele><time>2026-04-08T20:28:10.000Z</time></trkpt>
        <trkpt lat="28.660129" lon="105.389719"><ele>325.06625</ele><time>2026-04-08T20:28:17.000Z</time></trkpt>
        <trkpt lat="28.660083" lon="105.389728"><ele>322.00946</ele><time>2026-04-08T20:28:26.000Z</time></trkpt>
        <trkpt lat="28.660038" lon="105.389717"><ele>321.3541</ele><time>2026-04-08T20:28:31.000Z</time></trkpt>
        <trkpt lat="28.659992" lon="105.389709"><ele>321.2893</ele><time>2026-04-08T20:28:37.000Z</time></trkpt>
        <trkpt lat="28.659944" lon="105.389709"><ele>320.028</ele><time>2026-04-08T20:28:42.000Z</time></trkpt>
        <trkpt lat="28.659896" lon="105.389716"><ele>320.57785</ele><time>2026-04-08T20:28:49.000Z</time></trkpt>
        <trkpt lat="28.659845" lon="105.389714"><ele>319.99014</ele><time>2026-04-08T20:28:58.000Z</time></trkpt>
        <trkpt lat="28.65979" lon="105.389719"><ele>319.33743</ele><time>2026-04-08T20:29:04.000Z</time></trkpt>
        <trkpt lat="28.659744" lon="105.389709"><ele>319.2544</ele><time>2026-04-08T20:29:10.000Z</time></trkpt>
        <trkpt lat="28.659702" lon="105.389681"><ele>322.1673</ele><time>2026-04-08T20:29:17.000Z</time></trkpt>
        <trkpt lat="28.659658" lon="105.389661"><ele>322.16635</ele><time>2026-04-08T20:29:23.000Z</time></trkpt>
        <trkpt lat="28.659614" lon="105.389646"><ele>325.0275</ele><time>2026-04-08T20:29:28.000Z</time></trkpt>
        <trkpt lat="28.659568" lon="105.389649"><ele>326.55035</ele><time>2026-04-08T20:29:35.000Z</time></trkpt>
        <trkpt lat="28.659523" lon="105.389648"><ele>326.16684</ele><time>2026-04-08T20:29:43.000Z</time></trkpt>
        <trkpt lat="28.659464" lon="105.389652"><ele>324.32843</ele><time>2026-04-08T20:29:53.000Z</time></trkpt>
        <trkpt lat="28.659419" lon="105.389646"><ele>322.64023</ele><time>2026-04-08T20:30:02.000Z</time></trkpt>
        <trkpt lat="28.659371" lon="105.389661"><ele>324.3965</ele><time>2026-04-08T20:30:10.000Z</time></trkpt>
        <trkpt lat="28.659342" lon="105.389703"><ele>325.71106</ele><time>2026-04-08T20:30:18.000Z</time></trkpt>
        <trkpt lat="28.659298" lon="105.389734"><ele>324.1852</ele><time>2026-04-08T20:30:25.000Z</time></trkpt>
        <trkpt lat="28.659244" lon="105.389755"><ele>325.5339</ele><time>2026-04-08T20:30:35.000Z</time></trkpt>
        <trkpt lat="28.659192" lon="105.389762"><ele>325.2376</ele><time>2026-04-08T20:30:41.000Z</time></trkpt>
        <trkpt lat="28.659143" lon="105.389747"><ele>324.01102</ele><time>2026-04-08T20:30:48.000Z</time></trkpt>
        <trkpt lat="28.6591" lon="105.389713"><ele>327.4337</ele><time>2026-04-08T20:30:58.000Z</time></trkpt>
        <trkpt lat="28.659055" lon="105.389723"><ele>328.77396</ele><time>2026-04-08T20:31:05.000Z</time></trkpt>
        <trkpt lat="28.659021" lon="105.389765"><ele>331.26666</ele><time>2026-04-08T20:31:32.000Z</time></trkpt>
        <trkpt lat="28.658999" lon="105.38972"><ele>339.85</ele><time>2026-04-08T20:32:05.000Z</time></trkpt>
        <trkpt lat="28.658951" lon="105.389718"><ele>357.0639</ele><time>2026-04-08T20:32:38.000Z</time></trkpt>
        <trkpt lat="28.658905" lon="105.389683"><ele>358.57095</ele><time>2026-04-08T20:32:47.000Z</time></trkpt>
        <trkpt lat="28.658862" lon="105.389711"><ele>359.14966</ele><time>2026-04-08T20:32:54.000Z</time></trkpt>
        <trkpt lat="28.658844" lon="105.389728"><ele>360.28687</ele><time>2026-04-08T20:33:11.000Z</time></trkpt>
        <trkpt lat="28.658802" lon="105.389704"><ele>360.33786</ele><time>2026-04-08T20:33:25.000Z</time></trkpt>
        <trkpt lat="28.658789" lon="105.389651"><ele>359.33264</ele><time>2026-04-08T20:33:34.000Z</time></trkpt>
        <trkpt lat="28.65882" lon="105.389609"><ele>359.3967</ele><time>2026-04-08T20:33:55.000Z</time></trkpt>
        <trkpt lat="28.658772" lon="105.389595"><ele>360.8301</ele><time>2026-04-08T20:34:07.000Z</time></trkpt>
        <trkpt lat="28.658766" lon="105.389646"><ele>360.01782</ele><time>2026-04-08T20:35:34.000Z</time></trkpt>
        <trkpt lat="28.658817" lon="105.389616"><ele>360.27164</ele><time>2026-04-08T20:36:12.000Z</time></trkpt>
        <trkpt lat="28.658821" lon="105.389679"><ele>359.8621</ele><time>2026-04-08T20:37:38.000Z</time></trkpt>
        <trkpt lat="28.65877" lon="105.389705"><ele>359.14282</ele><time>2026-04-08T20:37:55.000Z</time></trkpt>
        <trkpt lat="28.658771" lon="105.389648"><ele>359.4268</ele><time>2026-04-08T20:38:08.000Z</time></trkpt>
        <trkpt lat="28.658706" lon="105.389674"><ele>360.5855</ele><time>2026-04-08T20:39:26.000Z</time></trkpt>
        <trkpt lat="28.6587" lon="105.389661"><ele>360.84152</ele><time>2026-04-08T20:39:37.000Z</time></trkpt>
        <trkpt lat="28.6587" lon="105.389659"><ele>360.77374</ele><time>2026-04-08T20:40:06.000Z</time></trkpt>
        <trkpt lat="28.658748" lon="105.389664"><ele>360.97665</ele><time>2026-04-08T20:40:21.000Z</time></trkpt>
        <trkpt lat="28.658773" lon="105.389675"><ele>360.16818</ele><time>2026-04-08T20:40:39.000Z</time></trkpt>
        <trkpt lat="28.658751" lon="105.389653"><ele>360.4252</ele><time>2026-04-08T20:41:04.000Z</time></trkpt>
        <trkpt lat="28.658713" lon="105.389689"><ele>361.28903</ele><time>2026-04-08T20:41:31.000Z</time></trkpt>
        <trkpt lat="28.658691" lon="105.389756"><ele>360.14108</ele><time>2026-04-08T20:41:40.000Z</time></trkpt>
        <trkpt lat="28.658643" lon="105.389745"><ele>359.76886</ele><time>2026-04-08T20:41:47.000Z</time></trkpt>
        <trkpt lat="28.658771" lon="105.389674"><ele>360.20697</ele><time>2026-04-08T20:42:13.000Z</time></trkpt>
        <trkpt lat="28.65878" lon="105.389685"><ele>359.73288</ele><time>2026-04-08T20:42:54.000Z</time></trkpt>
        <trkpt lat="28.658731" lon="105.389704"><ele>359.0429</ele><time>2026-04-08T20:43:20.000Z</time></trkpt>
        <trkpt lat="28.658676" lon="105.389695"><ele>359.9057</ele><time>2026-04-08T20:43:29.000Z</time></trkpt>
        <trkpt lat="28.658635" lon="105.389672"><ele>359.40268</ele><time>2026-04-08T20:43:35.000Z</time></trkpt>
        <trkpt lat="28.658592" lon="105.389697"><ele>359.81857</ele><time>2026-04-08T20:43:44.000Z</time></trkpt>
        <trkpt lat="28.65861" lon="105.389749"><ele>356.46625</ele><time>2026-04-08T20:43:52.000Z</time></trkpt>
        <trkpt lat="28.658557" lon="105.389751"><ele>346.93008</ele><time>2026-04-08T20:44:06.000Z</time></trkpt>
        <trkpt lat="28.658515" lon="105.389781"><ele>343.6757</ele><time>2026-04-08T20:44:16.000Z</time></trkpt>
        <trkpt lat="28.658492" lon="105.389829"><ele>331.60638</ele><time>2026-04-08T20:44:29.000Z</time></trkpt>
        <trkpt lat="28.658453" lon="105.38986"><ele>325.621</ele><time>2026-04-08T20:44:40.000Z</time></trkpt>
        <trkpt lat="28.658421" lon="105.389816"><ele>320.19742</ele><time>2026-04-08T20:44:52.000Z</time></trkpt>
        <trkpt lat="28.658392" lon="105.389777"><ele>316.8764</ele><time>2026-04-08T20:45:12.000Z</time></trkpt>
        <trkpt lat="28.6584" lon="105.389713"><ele>319.41162</ele><time>2026-04-08T20:45:18.000Z</time></trkpt>
        <trkpt lat="28.658375" lon="105.389669"><ele>323.50104</ele><time>2026-04-08T20:45:32.000Z</time></trkpt>
        <trkpt lat="28.658336" lon="105.389635"><ele>323.1641</ele><time>2026-04-08T20:45:38.000Z</time></trkpt>
        <trkpt lat="28.658298" lon="105.389601"><ele>323.30222</ele><time>2026-04-08T20:45:46.000Z</time></trkpt>
        <trkpt lat="28.658264" lon="105.389556"><ele>324.77798</ele><time>2026-04-08T20:45:56.000Z</time></trkpt>
        <trkpt lat="28.658246" lon="105.389509"><ele>326.32727</ele><time>2026-04-08T20:46:06.000Z</time></trkpt>
        <trkpt lat="28.658205" lon="105.389529"><ele>332.31186</ele><time>2026-04-08T20:47:56.000Z</time></trkpt>
        <trkpt lat="28.65817" lon="105.389565"><ele>334.5875</ele><time>2026-04-08T20:48:09.000Z</time></trkpt>
        <trkpt lat="28.658125" lon="105.389589"><ele>340.15002</ele><time>2026-04-08T20:48:25.000Z</time></trkpt>
        <trkpt lat="28.65807" lon="105.389601"><ele>343.306</ele><time>2026-04-08T20:48:39.000Z</time></trkpt>
        <trkpt lat="28.658023" lon="105.3896"><ele>351.5429</ele><time>2026-04-08T20:49:06.000Z</time></trkpt>
        <trkpt lat="28.657974" lon="105.389598"><ele>363.88254</ele><time>2026-04-08T20:49:14.000Z</time></trkpt>
        <trkpt lat="28.657937" lon="105.389558"><ele>375.81345</ele><time>2026-04-08T20:49:18.000Z</time></trkpt>
        <trkpt lat="28.657899" lon="105.389586"><ele>379.72095</ele><time>2026-04-08T20:49:31.000Z</time></trkpt>
        <trkpt lat="28.657853" lon="105.389548"><ele>379.22693</ele><time>2026-04-08T20:49:47.000Z</time></trkpt>
        <trkpt lat="28.657811" lon="105.3895"><ele>378.5916</ele><time>2026-04-08T20:49:52.000Z</time></trkpt>
        <trkpt lat="28.657772" lon="105.389468"><ele>379.773</ele><time>2026-04-08T20:49:59.000Z</time></trkpt>
        <trkpt lat="28.657725" lon="105.389443"><ele>381.04858</ele><time>2026-04-08T20:50:08.000Z</time></trkpt>
        <trkpt lat="28.657676" lon="105.389432"><ele>381.8326</ele><time>2026-04-08T20:50:16.000Z</time></trkpt>
        <trkpt lat="28.657626" lon="105.3894"><ele>383.73047</ele><time>2026-04-08T20:50:24.000Z</time></trkpt>
        <trkpt lat="28.657584" lon="105.389378"><ele>384.64667</ele><time>2026-04-08T20:50:31.000Z</time></trkpt>
        <trkpt lat="28.657543" lon="105.389348"><ele>385.9325</ele><time>2026-04-08T20:50:38.000Z</time></trkpt>
        <trkpt lat="28.657495" lon="105.389329"><ele>386.97635</ele><time>2026-04-08T20:50:45.000Z</time></trkpt>
        <trkpt lat="28.657445" lon="105.389311"><ele>387.62225</ele><time>2026-04-08T20:50:53.000Z</time></trkpt>
        <trkpt lat="28.6574" lon="105.389296"><ele>388.7134</ele><time>2026-04-08T20:51:00.000Z</time></trkpt>
        <trkpt lat="28.657358" lon="105.389324"><ele>390.79953</ele><time>2026-04-08T20:51:09.000Z</time></trkpt>
        <trkpt lat="28.657315" lon="105.389309"><ele>393.1035</ele><time>2026-04-08T20:51:28.000Z</time></trkpt>
        <trkpt lat="28.657277" lon="105.389343"><ele>392.8945</ele><time>2026-04-08T20:51:36.000Z</time></trkpt>
        <trkpt lat="28.657225" lon="105.389361"><ele>393.7513</ele><time>2026-04-08T20:51:39.000Z</time></trkpt>
        <trkpt lat="28.657174" lon="105.389366"><ele>395.86728</ele><time>2026-04-08T20:51:46.000Z</time></trkpt>
        <trkpt lat="28.657122" lon="105.389375"><ele>395.91663</ele><time>2026-04-08T20:51:52.000Z</time></trkpt>
        <trkpt lat="28.65707" lon="105.389366"><ele>396.35724</ele><time>2026-04-08T20:51:59.000Z</time></trkpt>
        <trkpt lat="28.65702" lon="105.38937"><ele>396.9883</ele><time>2026-04-08T20:52:04.000Z</time></trkpt>
        <trkpt lat="28.65697" lon="105.389366"><ele>395.92487</ele><time>2026-04-08T20:52:10.000Z</time></trkpt>
        <trkpt lat="28.656923" lon="105.389354"><ele>395.27087</ele><time>2026-04-08T20:52:15.000Z</time></trkpt>
        <trkpt lat="28.656881" lon="105.389324"><ele>396.19177</ele><time>2026-04-08T20:52:20.000Z</time></trkpt>
        <trkpt lat="28.656836" lon="105.389323"><ele>396.60693</ele><time>2026-04-08T20:52:29.000Z</time></trkpt>
        <trkpt lat="28.656783" lon="105.389333"><ele>396.74213</ele><time>2026-04-08T20:52:35.000Z</time></trkpt>
        <trkpt lat="28.656736" lon="105.389318"><ele>399.68445</ele><time>2026-04-08T20:52:53.000Z</time></trkpt>
        <trkpt lat="28.656691" lon="105.389347"><ele>401.3306</ele><time>2026-04-08T20:53:01.000Z</time></trkpt>
        <trkpt lat="28.656688" lon="105.389399"><ele>401.6555</ele><time>2026-04-08T20:53:11.000Z</time></trkpt>
        <trkpt lat="28.656634" lon="105.389406"><ele>402.9022</ele><time>2026-04-08T20:53:23.000Z</time></trkpt>
        <trkpt lat="28.656587" lon="105.389417"><ele>403.2447</ele><time>2026-04-08T20:53:38.000Z</time></trkpt>
        <trkpt lat="28.656538" lon="105.389425"><ele>404.0063</ele><time>2026-04-08T20:53:52.000Z</time></trkpt>
        <trkpt lat="28.656492" lon="105.389409"><ele>404.50256</ele><time>2026-04-08T20:53:58.000Z</time></trkpt>
        <trkpt lat="28.656447" lon="105.389404"><ele>404.62738</ele><time>2026-04-08T20:54:02.000Z</time></trkpt>
        <trkpt lat="28.656398" lon="105.389374"><ele>403.97894</ele><time>2026-04-08T20:54:09.000Z</time></trkpt>
        <trkpt lat="28.656364" lon="105.389328"><ele>403.60406</ele><time>2026-04-08T20:54:21.000Z</time></trkpt>
        <trkpt lat="28.656336" lon="105.389281"><ele>403.869</ele><time>2026-04-08T20:54:27.000Z</time></trkpt>
        <trkpt lat="28.656336" lon="105.389228"><ele>405.05594</ele><time>2026-04-08T20:54:39.000Z</time></trkpt>
        <trkpt lat="28.656304" lon="105.389191"><ele>402.82877</ele><time>2026-04-08T20:54:53.000Z</time></trkpt>
        <trkpt lat="28.656256" lon="105.389175"><ele>404.6499</ele><time>2026-04-08T20:55:10.000Z</time></trkpt>
        <trkpt lat="28.656252" lon="105.389118"><ele>402.1354</ele><time>2026-04-08T20:55:54.000Z</time></trkpt>
        <trkpt lat="28.656227" lon="105.389071"><ele>403.98746</ele><time>2026-04-08T20:56:02.000Z</time></trkpt>
        <trkpt lat="28.656191" lon="105.389035"><ele>404.0321</ele><time>2026-04-08T20:56:13.000Z</time></trkpt>
        <trkpt lat="28.65616" lon="105.388998"><ele>403.83243</ele><time>2026-04-08T20:56:18.000Z</time></trkpt>
        <trkpt lat="28.656161" lon="105.388946"><ele>403.2241</ele><time>2026-04-08T20:56:27.000Z</time></trkpt>
        <trkpt lat="28.656182" lon="105.388895"><ele>401.67084</ele><time>2026-04-08T20:56:52.000Z</time></trkpt>
        <trkpt lat="28.656235" lon="105.388874"><ele>401.14944</ele><time>2026-04-08T20:56:59.000Z</time></trkpt>
        <trkpt lat="28.656288" lon="105.388856"><ele>401.22415</ele><time>2026-04-08T20:57:07.000Z</time></trkpt>
        <trkpt lat="28.656336" lon="105.388834"><ele>400.83862</ele><time>2026-04-08T20:57:17.000Z</time></trkpt>
        <trkpt lat="28.656307" lon="105.388876"><ele>400.714</ele><time>2026-04-08T20:57:51.000Z</time></trkpt>
        <trkpt lat="28.656266" lon="105.388899"><ele>400.9225</ele><time>2026-04-08T20:58:05.000Z</time></trkpt>
        <trkpt lat="28.656218" lon="105.388916"><ele>401.18185</ele><time>2026-04-08T20:58:15.000Z</time></trkpt>
        <trkpt lat="28.656171" lon="105.388936"><ele>402.23038</ele><time>2026-04-08T20:58:30.000Z</time></trkpt>
        <trkpt lat="28.656197" lon="105.388985"><ele>402.12033</ele><time>2026-04-08T20:58:43.000Z</time></trkpt>
        <trkpt lat="28.65621" lon="105.389037"><ele>404.01852</ele><time>2026-04-08T20:58:50.000Z</time></trkpt>
        <trkpt lat="28.656215" lon="105.389091"><ele>403.7183</ele><time>2026-04-08T20:58:56.000Z</time></trkpt>
        <trkpt lat="28.656253" lon="105.389132"><ele>403.14053</ele><time>2026-04-08T20:59:02.000Z</time></trkpt>
        <trkpt lat="28.656237" lon="105.389182"><ele>405.28525</ele><time>2026-04-08T20:59:26.000Z</time></trkpt>
        <trkpt lat="28.656259" lon="105.38923"><ele>406.56183</ele><time>2026-04-08T20:59:56.000Z</time></trkpt>
        <trkpt lat="28.656263" lon="105.389281"><ele>407.55933</ele><time>2026-04-08T21:00:07.000Z</time></trkpt>
        <trkpt lat="28.656247" lon="105.38933"><ele>408.23923</ele><time>2026-04-08T21:00:17.000Z</time></trkpt>
        <trkpt lat="28.656247" lon="105.389383"><ele>409.63895</ele><time>2026-04-08T21:00:29.000Z</time></trkpt>
        <trkpt lat="28.656259" lon="105.389435"><ele>409.46295</ele><time>2026-04-08T21:00:41.000Z</time></trkpt>
        <trkpt lat="28.656299" lon="105.389462"><ele>409.1313</ele><time>2026-04-08T21:00:47.000Z</time></trkpt>
        <trkpt lat="28.656343" lon="105.389474"><ele>405.23734</ele><time>2026-04-08T21:02:12.000Z</time></trkpt>
        <trkpt lat="28.656291" lon="105.389475"><ele>403.16638</ele><time>2026-04-08T21:02:59.000Z</time></trkpt>
        <trkpt lat="28.656247" lon="105.389511"><ele>407.19913</ele><time>2026-04-08T21:03:10.000Z</time></trkpt>
        <trkpt lat="28.656193" lon="105.389523"><ele>411.52982</ele><time>2026-04-08T21:03:28.000Z</time></trkpt>
        <trkpt lat="28.656153" lon="105.389497"><ele>412.69675</ele><time>2026-04-08T21:03:35.000Z</time></trkpt>
        <trkpt lat="28.656114" lon="105.38947"><ele>413.17422</ele><time>2026-04-08T21:03:41.000Z</time></trkpt>
        <trkpt lat="28.65616" lon="105.389486"><ele>414.13455</ele><time>2026-04-08T21:03:47.000Z</time></trkpt>
        <trkpt lat="28.656159" lon="105.389542"><ele>414.77963</ele><time>2026-04-08T21:03:59.000Z</time></trkpt>
        <trkpt lat="28.656101" lon="105.389537"><ele>416.7468</ele><time>2026-04-08T21:04:41.000Z</time></trkpt>
        <trkpt lat="28.656052" lon="105.389538"><ele>416.84628</ele><time>2026-04-08T21:04:49.000Z</time></trkpt>
        <trkpt lat="28.656006" lon="105.389537"><ele>417.25412</ele><time>2026-04-08T21:04:52.000Z</time></trkpt>
        <trkpt lat="28.655969" lon="105.389499"><ele>418.61636</ele><time>2026-04-08T21:04:59.000Z</time></trkpt>
        <trkpt lat="28.655987" lon="105.389442"><ele>418.0685</ele><time>2026-04-08T21:05:13.000Z</time></trkpt>
        <trkpt lat="28.656008" lon="105.38939"><ele>416.9998</ele><time>2026-04-08T21:05:20.000Z</time></trkpt>
        <trkpt lat="28.656018" lon="105.389337"><ele>414.3336</ele><time>2026-04-08T21:05:30.000Z</time></trkpt>
        <trkpt lat="28.656024" lon="105.389282"><ele>413.867</ele><time>2026-04-08T21:05:35.000Z</time></trkpt>
        <trkpt lat="28.656018" lon="105.389219"><ele>412.95557</ele><time>2026-04-08T21:05:44.000Z</time></trkpt>
        <trkpt lat="28.656004" lon="105.389167"><ele>410.4386</ele><time>2026-04-08T21:06:00.000Z</time></trkpt>
        <trkpt lat="28.655998" lon="105.389114"><ele>410.43915</ele><time>2026-04-08T21:06:14.000Z</time></trkpt>
        <trkpt lat="28.656048" lon="105.389092"><ele>410.1402</ele><time>2026-04-08T21:06:17.000Z</time></trkpt>
        <trkpt lat="28.656056" lon="105.389041"><ele>409.32333</ele><time>2026-04-08T21:06:29.000Z</time></trkpt>
        <trkpt lat="28.656043" lon="105.388992"><ele>407.49057</ele><time>2026-04-08T21:06:51.000Z</time></trkpt>
        <trkpt lat="28.656056" lon="105.388934"><ele>406.32382</ele><time>2026-04-08T21:07:01.000Z</time></trkpt>
        <trkpt lat="28.656039" lon="105.388881"><ele>404.89267</ele><time>2026-04-08T21:07:07.000Z</time></trkpt>
        <trkpt lat="28.656014" lon="105.388836"><ele>404.84848</ele><time>2026-04-08T21:07:12.000Z</time></trkpt>
        <trkpt lat="28.655979" lon="105.388799"><ele>404.56693</ele><time>2026-04-08T21:07:18.000Z</time></trkpt>
        <trkpt lat="28.655935" lon="105.388778"><ele>404.29355</ele><time>2026-04-08T21:07:28.000Z</time></trkpt>
        <trkpt lat="28.655885" lon="105.388749"><ele>405.3001</ele><time>2026-04-08T21:07:40.000Z</time></trkpt>
        <trkpt lat="28.655851" lon="105.388714"><ele>404.64566</ele><time>2026-04-08T21:07:47.000Z</time></trkpt>
        <trkpt lat="28.655817" lon="105.388666"><ele>403.66748</ele><time>2026-04-08T21:07:59.000Z</time></trkpt>
        <trkpt lat="28.655772" lon="105.388641"><ele>403.16898</ele><time>2026-04-08T21:08:06.000Z</time></trkpt>
        <trkpt lat="28.655722" lon="105.388627"><ele>402.43988</ele><time>2026-04-08T21:08:13.000Z</time></trkpt>
        <trkpt lat="28.655683" lon="105.388597"><ele>405.29175</ele><time>2026-04-08T21:09:02.000Z</time></trkpt>
        <trkpt lat="28.655635" lon="105.388602"><ele>404.81152</ele><time>2026-04-08T21:09:15.000Z</time></trkpt>
        <trkpt lat="28.655598" lon="105.388632"><ele>405.74185</ele><time>2026-04-08T21:09:20.000Z</time></trkpt>
        <trkpt lat="28.655552" lon="105.388627"><ele>406.62396</ele><time>2026-04-08T21:09:27.000Z</time></trkpt>
        <trkpt lat="28.65553" lon="105.388578"><ele>407.32535</ele><time>2026-04-08T21:09:37.000Z</time></trkpt>
        <trkpt lat="28.655487" lon="105.388562"><ele>407.30695</ele><time>2026-04-08T21:09:47.000Z</time></trkpt>
        <trkpt lat="28.655428" lon="105.388538"><ele>408.33032</ele><time>2026-04-08T21:09:55.000Z</time></trkpt>
        <trkpt lat="28.655386" lon="105.388561"><ele>408.04843</ele><time>2026-04-08T21:10:03.000Z</time></trkpt>
        <trkpt lat="28.655339" lon="105.388587"><ele>408.46194</ele><time>2026-04-08T21:10:09.000Z</time></trkpt>
        <trkpt lat="28.6553" lon="105.388537"><ele>409.09183</ele><time>2026-04-08T21:10:15.000Z</time></trkpt>
        <trkpt lat="28.655251" lon="105.388558"><ele>408.1743</ele><time>2026-04-08T21:10:28.000Z</time></trkpt>
        <trkpt lat="28.655204" lon="105.388563"><ele>408.27145</ele><time>2026-04-08T21:10:43.000Z</time></trkpt>
        <trkpt lat="28.655178" lon="105.388608"><ele>410.0524</ele><time>2026-04-08T21:11:12.000Z</time></trkpt>
        <trkpt lat="28.655127" lon="105.388603"><ele>408.14014</ele><time>2026-04-08T21:11:32.000Z</time></trkpt>
        <trkpt lat="28.655105" lon="105.388652"><ele>406.09088</ele><time>2026-04-08T21:11:38.000Z</time></trkpt>
        <trkpt lat="28.655094" lon="105.388586"><ele>407.95108</ele><time>2026-04-08T21:11:51.000Z</time></trkpt>
        <trkpt lat="28.655108" lon="105.388532"><ele>411.75092</ele><time>2026-04-08T21:11:58.000Z</time></trkpt>
        <trkpt lat="28.655129" lon="105.388486"><ele>409.73</ele><time>2026-04-08T21:12:08.000Z</time></trkpt>
        <trkpt lat="28.655144" lon="105.388435"><ele>407.94998</ele><time>2026-04-08T21:12:27.000Z</time></trkpt>
        <trkpt lat="28.655128" lon="105.388383"><ele>406.51053</ele><time>2026-04-08T21:12:35.000Z</time></trkpt>
        <trkpt lat="28.655122" lon="105.388331"><ele>401.7116</ele><time>2026-04-08T21:13:31.000Z</time></trkpt>
        <trkpt lat="28.65508" lon="105.388306"><ele>401.02606</ele><time>2026-04-08T21:13:58.000Z</time></trkpt>
        <trkpt lat="28.655034" lon="105.388291"><ele>402.21677</ele><time>2026-04-08T21:14:09.000Z</time></trkpt>
        <trkpt lat="28.654997" lon="105.388257"><ele>402.15063</ele><time>2026-04-08T21:14:18.000Z</time></trkpt>
        <trkpt lat="28.655045" lon="105.388267"><ele>402.50333</ele><time>2026-04-08T21:14:47.000Z</time></trkpt>
        <trkpt lat="28.655083" lon="105.3883"><ele>401.497</ele><time>2026-04-08T21:14:53.000Z</time></trkpt>
        <trkpt lat="28.655108" lon="105.388358"><ele>401.81757</ele><time>2026-04-08T21:15:00.000Z</time></trkpt>
        <trkpt lat="28.655142" lon="105.388393"><ele>402.6656</ele><time>2026-04-08T21:15:07.000Z</time></trkpt>
        <trkpt lat="28.655137" lon="105.38845"><ele>403.67368</ele><time>2026-04-08T21:15:20.000Z</time></trkpt>
        <trkpt lat="28.655137" lon="105.388501"><ele>404.99585</ele><time>2026-04-08T21:15:31.000Z</time></trkpt>
        <trkpt lat="28.655132" lon="105.388552"><ele>409.07666</ele><time>2026-04-08T21:16:46.000Z</time></trkpt>
        <trkpt lat="28.655127" lon="105.388616"><ele>410.63037</ele><time>2026-04-08T21:16:58.000Z</time></trkpt>
        <trkpt lat="28.655123" lon="105.388671"><ele>409.83487</ele><time>2026-04-08T21:17:19.000Z</time></trkpt>
        <trkpt lat="28.655114" lon="105.388946"><ele>416.38043</ele><time>2026-04-08T21:17:29.000Z</time></trkpt>
        <trkpt lat="28.655153" lon="105.388769"><ele>414.21133</ele><time>2026-04-08T21:17:42.000Z</time></trkpt>
        <trkpt lat="28.655158" lon="105.388628"><ele>412.97906</ele><time>2026-04-08T21:18:02.000Z</time></trkpt>
        <trkpt lat="28.65512" lon="105.388534"><ele>410.52487</ele><time>2026-04-08T21:18:17.000Z</time></trkpt>
        <trkpt lat="28.655174" lon="105.388662"><ele>409.6342</ele><time>2026-04-08T21:18:28.000Z</time></trkpt>
        <trkpt lat="28.655267" lon="105.388625"><ele>410.6316</ele><time>2026-04-08T21:18:42.000Z</time></trkpt>
        <trkpt lat="28.655313" lon="105.388614"><ele>410.19244</ele><time>2026-04-08T21:18:47.000Z</time></trkpt>
        <trkpt lat="28.65536" lon="105.388597"><ele>407.98077</ele><time>2026-04-08T21:18:53.000Z</time></trkpt>
        <trkpt lat="28.655405" lon="105.388595"><ele>406.46387</ele><time>2026-04-08T21:18:58.000Z</time></trkpt>
        <trkpt lat="28.655455" lon="105.388602"><ele>406.43076</ele><time>2026-04-08T21:19:03.000Z</time></trkpt>
        <trkpt lat="28.655513" lon="105.388601"><ele>406.67194</ele><time>2026-04-08T21:19:07.000Z</time></trkpt>
        <trkpt lat="28.655564" lon="105.38861"><ele>407.65262</ele><time>2026-04-08T21:19:12.000Z</time></trkpt>
        <trkpt lat="28.65561" lon="105.388608"><ele>407.41217</ele><time>2026-04-08T21:19:19.000Z</time></trkpt>
        <trkpt lat="28.655656" lon="105.388607"><ele>405.72568</ele><time>2026-04-08T21:19:27.000Z</time></trkpt>
        <trkpt lat="28.655703" lon="105.388599"><ele>406.86606</ele><time>2026-04-08T21:19:38.000Z</time></trkpt>
        <trkpt lat="28.655749" lon="105.388619"><ele>406.2302</ele><time>2026-04-08T21:19:55.000Z</time></trkpt>
        <trkpt lat="28.655795" lon="105.38865"><ele>406.2853</ele><time>2026-04-08T21:20:01.000Z</time></trkpt>
        <trkpt lat="28.655838" lon="105.388679"><ele>405.81708</ele><time>2026-04-08T21:20:05.000Z</time></trkpt>
        <trkpt lat="28.655879" lon="105.388721"><ele>405.6329</ele><time>2026-04-08T21:20:10.000Z</time></trkpt>
        <trkpt lat="28.65592" lon="105.388756"><ele>405.36908</ele><time>2026-04-08T21:20:18.000Z</time></trkpt>
        <trkpt lat="28.655962" lon="105.388786"><ele>404.9411</ele><time>2026-04-08T21:20:22.000Z</time></trkpt>
        <trkpt lat="28.65601" lon="105.388813"><ele>404.52664</ele><time>2026-04-08T21:20:24.000Z</time></trkpt>
        <trkpt lat="28.656036" lon="105.38886"><ele>404.85605</ele><time>2026-04-08T21:20:34.000Z</time></trkpt>
        <trkpt lat="28.656035" lon="105.388913"><ele>402.64734</ele><time>2026-04-08T21:20:44.000Z</time></trkpt>
        <trkpt lat="28.656021" lon="105.388976"><ele>404.8929</ele><time>2026-04-08T21:20:51.000Z</time></trkpt>
        <trkpt lat="28.656021" lon="105.389034"><ele>406.609</ele><time>2026-04-08T21:20:56.000Z</time></trkpt>
        <trkpt lat="28.656018" lon="105.389096"><ele>407.28156</ele><time>2026-04-08T21:21:01.000Z</time></trkpt>
        <trkpt lat="28.656078" lon="105.389132"><ele>409.19394</ele><time>2026-04-08T21:21:06.000Z</time></trkpt>
        <trkpt lat="28.656104" lon="105.389175"><ele>408.3067</ele><time>2026-04-08T21:21:13.000Z</time></trkpt>
        <trkpt lat="28.656078" lon="105.389227"><ele>406.88535</ele><time>2026-04-08T21:21:26.000Z</time></trkpt>
        <trkpt lat="28.656086" lon="105.389288"><ele>408.2164</ele><time>2026-04-08T21:21:35.000Z</time></trkpt>
        <trkpt lat="28.656079" lon="105.389341"><ele>408.2383</ele><time>2026-04-08T21:21:41.000Z</time></trkpt>
        <trkpt lat="28.656083" lon="105.389399"><ele>410.05215</ele><time>2026-04-08T21:21:48.000Z</time></trkpt>
        <trkpt lat="28.656078" lon="105.389455"><ele>411.76215</ele><time>2026-04-08T21:22:12.000Z</time></trkpt>
        <trkpt lat="28.656071" lon="105.38951"><ele>410.80386</ele><time>2026-04-08T21:22:54.000Z</time></trkpt>
        <trkpt lat="28.656046" lon="105.389554"><ele>417.5837</ele><time>2026-04-08T21:23:25.000Z</time></trkpt>
        <trkpt lat="28.656098" lon="105.389569"><ele>416.38547</ele><time>2026-04-08T21:24:10.000Z</time></trkpt>
        <trkpt lat="28.656145" lon="105.389577"><ele>416.81522</ele><time>2026-04-08T21:24:13.000Z</time></trkpt>
        <trkpt lat="28.656192" lon="105.389593"><ele>416.4348</ele><time>2026-04-08T21:24:20.000Z</time></trkpt>
        <trkpt lat="28.656176" lon="105.389541"><ele>414.79596</ele><time>2026-04-08T21:24:44.000Z</time></trkpt>
        <trkpt lat="28.656149" lon="105.38949"><ele>413.37173</ele><time>2026-04-08T21:24:52.000Z</time></trkpt>
        <trkpt lat="28.656136" lon="105.38944"><ele>412.7459</ele><time>2026-04-08T21:25:02.000Z</time></trkpt>
        <trkpt lat="28.656188" lon="105.389436"><ele>412.42844</ele><time>2026-04-08T21:25:11.000Z</time></trkpt>
        <trkpt lat="28.656209" lon="105.389484"><ele>411.26038</ele><time>2026-04-08T21:25:18.000Z</time></trkpt>
        <trkpt lat="28.656265" lon="105.389483"><ele>411.50775</ele><time>2026-04-08T21:25:24.000Z</time></trkpt>
        <trkpt lat="28.656273" lon="105.389429"><ele>409.61328</ele><time>2026-04-08T21:25:33.000Z</time></trkpt>
        <trkpt lat="28.656302" lon="105.389389"><ele>408.54105</ele><time>2026-04-08T21:26:33.000Z</time></trkpt>
        <trkpt lat="28.656334" lon="105.38943"><ele>408.8739</ele><time>2026-04-08T21:28:05.000Z</time></trkpt>
        <trkpt lat="28.656382" lon="105.38945"><ele>407.17062</ele><time>2026-04-08T21:28:15.000Z</time></trkpt>
        <trkpt lat="28.656407" lon="105.389494"><ele>406.944</ele><time>2026-04-08T21:28:21.000Z</time></trkpt>
        <trkpt lat="28.656464" lon="105.389522"><ele>407.26822</ele><time>2026-04-08T21:28:27.000Z</time></trkpt>
        <trkpt lat="28.656507" lon="105.389541"><ele>406.65192</ele><time>2026-04-08T21:28:34.000Z</time></trkpt>
        <trkpt lat="28.656556" lon="105.389544"><ele>407.5493</ele><time>2026-04-08T21:28:45.000Z</time></trkpt>
        <trkpt lat="28.656592" lon="105.389587"><ele>407.53497</ele><time>2026-04-08T21:28:53.000Z</time></trkpt>
        <trkpt lat="28.656634" lon="105.389624"><ele>408.4573</ele><time>2026-04-08T21:29:01.000Z</time></trkpt>
        <trkpt lat="28.656687" lon="105.389638"><ele>408.7384</ele><time>2026-04-08T21:29:11.000Z</time></trkpt>
        <trkpt lat="28.656738" lon="105.389651"><ele>407.52576</ele><time>2026-04-08T21:29:20.000Z</time></trkpt>
        <trkpt lat="28.656785" lon="105.38966"><ele>408.66644</ele><time>2026-04-08T21:29:32.000Z</time></trkpt>
        <trkpt lat="28.656835" lon="105.389682"><ele>408.11325</ele><time>2026-04-08T21:29:42.000Z</time></trkpt>
        <trkpt lat="28.656879" lon="105.389696"><ele>408.8644</ele><time>2026-04-08T21:29:56.000Z</time></trkpt>
        <trkpt lat="28.656928" lon="105.389698"><ele>408.21387</ele><time>2026-04-08T21:30:03.000Z</time></trkpt>
        <trkpt lat="28.656974" lon="105.389704"><ele>407.56927</ele><time>2026-04-08T21:30:10.000Z</time></trkpt>
        <trkpt lat="28.657023" lon="105.389709"><ele>408.4651</ele><time>2026-04-08T21:30:15.000Z</time></trkpt>
        <trkpt lat="28.65707" lon="105.389708"><ele>408.151</ele><time>2026-04-08T21:30:21.000Z</time></trkpt>
        <trkpt lat="28.657118" lon="105.389688"><ele>406.3331</ele><time>2026-04-08T21:30:34.000Z</time></trkpt>
        <trkpt lat="28.657166" lon="105.389681"><ele>405.69794</ele><time>2026-04-08T21:30:39.000Z</time></trkpt>
        <trkpt lat="28.657214" lon="105.389684"><ele>405.04877</ele><time>2026-04-08T21:30:47.000Z</time></trkpt>
        <trkpt lat="28.657253" lon="105.389721"><ele>404.48047</ele><time>2026-04-08T21:30:56.000Z</time></trkpt>
        <trkpt lat="28.657215" lon="105.38975"><ele>405.42084</ele><time>2026-04-08T21:31:04.000Z</time></trkpt>
        <trkpt lat="28.657253" lon="105.389779"><ele>407.04306</ele><time>2026-04-08T21:31:34.000Z</time></trkpt>
        <trkpt lat="28.657293" lon="105.389809"><ele>406.4689</ele><time>2026-04-08T21:31:43.000Z</time></trkpt>
        <trkpt lat="28.65734" lon="105.389814"><ele>407.54257</ele><time>2026-04-08T21:31:49.000Z</time></trkpt>
        <trkpt lat="28.657382" lon="105.389836"><ele>407.25296</ele><time>2026-04-08T21:31:59.000Z</time></trkpt>
        <trkpt lat="28.657401" lon="105.389888"><ele>406.84616</ele><time>2026-04-08T21:32:54.000Z</time></trkpt>
        <trkpt lat="28.657451" lon="105.389913"><ele>407.53076</ele><time>2026-04-08T21:33:04.000Z</time></trkpt>
        <trkpt lat="28.657497" lon="105.389907"><ele>408.57965</ele><time>2026-04-08T21:33:28.000Z</time></trkpt>
        <trkpt lat="28.657525" lon="105.389949"><ele>409.94785</ele><time>2026-04-08T21:33:34.000Z</time></trkpt>
        <trkpt lat="28.657501" lon="105.390006"><ele>412.8432</ele><time>2026-04-08T21:33:40.000Z</time></trkpt>
        <trkpt lat="28.657461" lon="105.390036"><ele>415.34644</ele><time>2026-04-08T21:33:46.000Z</time></trkpt>
        <trkpt lat="28.657415" lon="105.390045"><ele>416.5521</ele><time>2026-04-08T21:33:52.000Z</time></trkpt>
        <trkpt lat="28.657456" lon="105.390068"><ele>416.46127</ele><time>2026-04-08T21:34:29.000Z</time></trkpt>
        <trkpt lat="28.657502" lon="105.390072"><ele>417.31503</ele><time>2026-04-08T21:34:37.000Z</time></trkpt>
        <trkpt lat="28.657541" lon="105.390045"><ele>416.8072</ele><time>2026-04-08T21:34:43.000Z</time></trkpt>
        <trkpt lat="28.657577" lon="105.389999"><ele>417.41888</ele><time>2026-04-08T21:34:49.000Z</time></trkpt>
        <trkpt lat="28.657625" lon="105.390006"><ele>414.9952</ele><time>2026-04-08T21:34:55.000Z</time></trkpt>
        <trkpt lat="28.657675" lon="105.390024"><ele>414.99222</ele><time>2026-04-08T21:34:59.000Z</time></trkpt>
        <trkpt lat="28.657714" lon="105.390071"><ele>417.44577</ele><time>2026-04-08T21:35:06.000Z</time></trkpt>
        <trkpt lat="28.657726" lon="105.390122"><ele>418.7726</ele><time>2026-04-08T21:35:14.000Z</time></trkpt>
        <trkpt lat="28.657763" lon="105.390154"><ele>419.26306</ele><time>2026-04-08T21:35:19.000Z</time></trkpt>
        <trkpt lat="28.657813" lon="105.39016"><ele>420.2132</ele><time>2026-04-08T21:35:26.000Z</time></trkpt>
        <trkpt lat="28.657853" lon="105.390189"><ele>420.29565</ele><time>2026-04-08T21:35:32.000Z</time></trkpt>
        <trkpt lat="28.657896" lon="105.390214"><ele>420.96555</ele><time>2026-04-08T21:35:40.000Z</time></trkpt>
        <trkpt lat="28.657889" lon="105.390266"><ele>421.37915</ele><time>2026-04-08T21:35:50.000Z</time></trkpt>
        <trkpt lat="28.657896" lon="105.390317"><ele>425.00858</ele><time>2026-04-08T21:36:00.000Z</time></trkpt>
        <trkpt lat="28.657931" lon="105.390354"><ele>426.70367</ele><time>2026-04-08T21:36:05.000Z</time></trkpt>
        <trkpt lat="28.657958" lon="105.390397"><ele>427.69177</ele><time>2026-04-08T21:36:11.000Z</time></trkpt>
        <trkpt lat="28.65798" lon="105.390451"><ele>427.7607</ele><time>2026-04-08T21:36:17.000Z</time></trkpt>
        <trkpt lat="28.657978" lon="105.390503"><ele>428.50278</ele><time>2026-04-08T21:36:24.000Z</time></trkpt>
        <trkpt lat="28.657996" lon="105.390551"><ele>427.6392</ele><time>2026-04-08T21:36:30.000Z</time></trkpt>
        <trkpt lat="28.658008" lon="105.390606"><ele>428.43338</ele><time>2026-04-08T21:36:36.000Z</time></trkpt>
        <trkpt lat="28.658036" lon="105.390653"><ele>428.07745</ele><time>2026-04-08T21:36:42.000Z</time></trkpt>
        <trkpt lat="28.658057" lon="105.390699"><ele>427.51993</ele><time>2026-04-08T21:36:47.000Z</time></trkpt>
        <trkpt lat="28.65809" lon="105.390739"><ele>427.55</ele><time>2026-04-08T21:36:53.000Z</time></trkpt>
        <trkpt lat="28.658122" lon="105.390777"><ele>427.928</ele><time>2026-04-08T21:36:57.000Z</time></trkpt>
        <trkpt lat="28.658157" lon="105.390815"><ele>428.30518</ele><time>2026-04-08T21:37:05.000Z</time></trkpt>
        <trkpt lat="28.658198" lon="105.390837"><ele>428.32028</ele><time>2026-04-08T21:37:11.000Z</time></trkpt>
        <trkpt lat="28.658229" lon="105.390886"><ele>428.58347</ele><time>2026-04-08T21:37:18.000Z</time></trkpt>
        <trkpt lat="28.658275" lon="105.390872"><ele>426.76926</ele><time>2026-04-08T21:38:06.000Z</time></trkpt>
        <trkpt lat="28.658315" lon="105.39091"><ele>426.7355</ele><time>2026-04-08T21:38:15.000Z</time></trkpt>
        <trkpt lat="28.658291" lon="105.390958"><ele>428.4965</ele><time>2026-04-08T21:38:24.000Z</time></trkpt>
        <trkpt lat="28.658263" lon="105.390999"><ele>428.43945</ele><time>2026-04-08T21:38:32.000Z</time></trkpt>
        <trkpt lat="28.658246" lon="105.391049"><ele>429.9562</ele><time>2026-04-08T21:38:38.000Z</time></trkpt>
        <trkpt lat="28.658287" lon="105.391079"><ele>429.92548</ele><time>2026-04-08T21:39:06.000Z</time></trkpt>
        <trkpt lat="28.658333" lon="105.391105"><ele>429.1744</ele><time>2026-04-08T21:39:10.000Z</time></trkpt>
        <trkpt lat="28.658377" lon="105.391128"><ele>428.69907</ele><time>2026-04-08T21:39:13.000Z</time></trkpt>
        <trkpt lat="28.658414" lon="105.391084"><ele>428.10513</ele><time>2026-04-08T21:39:19.000Z</time></trkpt>
        <trkpt lat="28.658456" lon="105.39106"><ele>427.10355</ele><time>2026-04-08T21:39:26.000Z</time></trkpt>
        <trkpt lat="28.658414" lon="105.391104"><ele>427.79367</ele><time>2026-04-08T21:39:35.000Z</time></trkpt>
        <trkpt lat="28.658371" lon="105.391133"><ele>428.23642</ele><time>2026-04-08T21:39:37.000Z</time></trkpt>
        <trkpt lat="28.658322" lon="105.391125"><ele>428.2591</ele><time>2026-04-08T21:39:44.000Z</time></trkpt>
        <trkpt lat="28.658301" lon="105.391074"><ele>428.12787</ele><time>2026-04-08T21:39:50.000Z</time></trkpt>
        <trkpt lat="28.658243" lon="105.39101"><ele>431.70514</ele><time>2026-04-08T21:46:11.000Z</time></trkpt>
        <trkpt lat="28.658309" lon="105.391015"><ele>429.9467</ele><time>2026-04-08T21:46:19.000Z</time></trkpt>
        <trkpt lat="28.658337" lon="105.391064"><ele>429.44034</ele><time>2026-04-08T21:46:22.000Z</time></trkpt>
        <trkpt lat="28.658374" lon="105.39111"><ele>429.48096</ele><time>2026-04-08T21:46:25.000Z</time></trkpt>
        <trkpt lat="28.658391" lon="105.391158"><ele>429.41724</ele><time>2026-04-08T21:46:29.000Z</time></trkpt>
        <trkpt lat="28.658448" lon="105.391153"><ele>429.19876</ele><time>2026-04-08T21:46:35.000Z</time></trkpt>
        <trkpt lat="28.658494" lon="105.391135"><ele>429.45233</ele><time>2026-04-08T21:46:39.000Z</time></trkpt>
        <trkpt lat="28.658541" lon="105.391147"><ele>430.5563</ele><time>2026-04-08T21:46:42.000Z</time></trkpt>
        <trkpt lat="28.658591" lon="105.391125"><ele>430.5769</ele><time>2026-04-08T21:46:48.000Z</time></trkpt>
        <trkpt lat="28.65863" lon="105.391083"><ele>430.39435</ele><time>2026-04-08T21:46:52.000Z</time></trkpt>
        <trkpt lat="28.658664" lon="105.391049"><ele>429.6142</ele><time>2026-04-08T21:46:56.000Z</time></trkpt>
        <trkpt lat="28.658708" lon="105.391031"><ele>430.07605</ele><time>2026-04-08T21:47:01.000Z</time></trkpt>
        <trkpt lat="28.658741" lon="105.390995"><ele>428.5555</ele><time>2026-04-08T21:47:06.000Z</time></trkpt>
        <trkpt lat="28.658793" lon="105.390965"><ele>427.93365</ele><time>2026-04-08T21:47:12.000Z</time></trkpt>
        <trkpt lat="28.658835" lon="105.390925"><ele>428.2958</ele><time>2026-04-08T21:47:18.000Z</time></trkpt>
        <trkpt lat="28.658886" lon="105.390907"><ele>429.14816</ele><time>2026-04-08T21:47:24.000Z</time></trkpt>
        <trkpt lat="28.658938" lon="105.390875"><ele>429.7447</ele><time>2026-04-08T21:47:31.000Z</time></trkpt>
        <trkpt lat="28.658966" lon="105.390825"><ele>428.45544</ele><time>2026-04-08T21:47:39.000Z</time></trkpt>
        <trkpt lat="28.658994" lon="105.390781"><ele>426.2849</ele><time>2026-04-08T21:47:46.000Z</time></trkpt>
        <trkpt lat="28.659046" lon="105.390762"><ele>425.47452</ele><time>2026-04-08T21:47:50.000Z</time></trkpt>
        <trkpt lat="28.659093" lon="105.390737"><ele>424.0383</ele><time>2026-04-08T21:47:54.000Z</time></trkpt>
        <trkpt lat="28.659134" lon="105.390692"><ele>422.138</ele><time>2026-04-08T21:47:59.000Z</time></trkpt>
        <trkpt lat="28.659184" lon="105.390666"><ele>423.0589</ele><time>2026-04-08T21:48:03.000Z</time></trkpt>
        <trkpt lat="28.659238" lon="105.390664"><ele>424.62314</ele><time>2026-04-08T21:48:08.000Z</time></trkpt>
        <trkpt lat="28.659286" lon="105.390675"><ele>423.82257</ele><time>2026-04-08T21:48:13.000Z</time></trkpt>
        <trkpt lat="28.659336" lon="105.390666"><ele>422.63968</ele><time>2026-04-08T21:48:18.000Z</time></trkpt>
        <trkpt lat="28.659301" lon="105.390733"><ele>421.44788</ele><time>2026-04-08T21:52:54.000Z</time></trkpt>
        <trkpt lat="28.659326" lon="105.390684"><ele>422.1352</ele><time>2026-04-08T21:53:01.000Z</time></trkpt>
        <trkpt lat="28.659397" lon="105.390698"><ele>428.01712</ele><time>2026-04-08T21:53:26.000Z</time></trkpt>
        <trkpt lat="28.659442" lon="105.390714"><ele>427.577</ele><time>2026-04-08T21:53:32.000Z</time></trkpt>
        <trkpt lat="28.659492" lon="105.390728"><ele>426.52612</ele><time>2026-04-08T21:53:52.000Z</time></trkpt>
        <trkpt lat="28.659536" lon="105.390705"><ele>425.82208</ele><time>2026-04-08T21:53:57.000Z</time></trkpt>
        <trkpt lat="28.659584" lon="105.390707"><ele>425.75528</ele><time>2026-04-08T21:54:04.000Z</time></trkpt>
        <trkpt lat="28.659632" lon="105.390718"><ele>424.47983</ele><time>2026-04-08T21:54:11.000Z</time></trkpt>
        <trkpt lat="28.659662" lon="105.390764"><ele>426.1142</ele><time>2026-04-08T21:54:18.000Z</time></trkpt>
        <trkpt lat="28.659701" lon="105.390791"><ele>428.76303</ele><time>2026-04-08T21:54:25.000Z</time></trkpt>
        <trkpt lat="28.659756" lon="105.390786"><ele>431.00757</ele><time>2026-04-08T21:54:32.000Z</time></trkpt>
        <trkpt lat="28.6598" lon="105.390821"><ele>431.1638</ele><time>2026-04-08T21:54:40.000Z</time></trkpt>
        <trkpt lat="28.659842" lon="105.390797"><ele>430.55475</ele><time>2026-04-08T21:54:45.000Z</time></trkpt>
        <trkpt lat="28.659891" lon="105.390802"><ele>429.26538</ele><time>2026-04-08T21:54:52.000Z</time></trkpt>
        <trkpt lat="28.659937" lon="105.390778"><ele>428.05255</ele><time>2026-04-08T21:55:00.000Z</time></trkpt>
        <trkpt lat="28.659987" lon="105.390784"><ele>428.30588</ele><time>2026-04-08T21:55:04.000Z</time></trkpt>
        <trkpt lat="28.660034" lon="105.390775"><ele>427.42758</ele><time>2026-04-08T21:55:11.000Z</time></trkpt>
        <trkpt lat="28.660082" lon="105.390787"><ele>426.6929</ele><time>2026-04-08T21:55:16.000Z</time></trkpt>
        <trkpt lat="28.660133" lon="105.390807"><ele>426.73776</ele><time>2026-04-08T21:55:26.000Z</time></trkpt>
        <trkpt lat="28.660186" lon="105.390831"><ele>426.9302</ele><time>2026-04-08T21:55:31.000Z</time></trkpt>
        <trkpt lat="28.660234" lon="105.390856"><ele>426.26553</ele><time>2026-04-08T21:55:35.000Z</time></trkpt>
        <trkpt lat="28.660288" lon="105.390863"><ele>426.95792</ele><time>2026-04-08T21:55:39.000Z</time></trkpt>
        <trkpt lat="28.660335" lon="105.390865"><ele>428.00705</ele><time>2026-04-08T21:55:43.000Z</time></trkpt>
        <trkpt lat="28.660386" lon="105.390875"><ele>428.4295</ele><time>2026-04-08T21:55:47.000Z</time></trkpt>
        <trkpt lat="28.660436" lon="105.390891"><ele>427.93503</ele><time>2026-04-08T21:55:51.000Z</time></trkpt>
        <trkpt lat="28.660494" lon="105.390897"><ele>427.08087</ele><time>2026-04-08T21:55:58.000Z</time></trkpt>
        <trkpt lat="28.660543" lon="105.390907"><ele>427.5397</ele><time>2026-04-08T21:56:02.000Z</time></trkpt>
        <trkpt lat="28.660589" lon="105.390915"><ele>426.06726</ele><time>2026-04-08T21:56:12.000Z</time></trkpt>
        <trkpt lat="28.660617" lon="105.390959"><ele>426.13614</ele><time>2026-04-08T21:56:17.000Z</time></trkpt>
        <trkpt lat="28.660623" lon="105.391022"><ele>428.29065</ele><time>2026-04-08T21:56:23.000Z</time></trkpt>
        <trkpt lat="28.660597" lon="105.391077"><ele>429.3362</ele><time>2026-04-08T21:56:29.000Z</time></trkpt>
        <trkpt lat="28.660625" lon="105.391125"><ele>431.73532</ele><time>2026-04-08T21:56:35.000Z</time></trkpt>
        <trkpt lat="28.660673" lon="105.39113"><ele>432.05502</ele><time>2026-04-08T21:56:42.000Z</time></trkpt>
        <trkpt lat="28.660731" lon="105.391122"><ele>431.88278</ele><time>2026-04-08T21:56:48.000Z</time></trkpt>
        <trkpt lat="28.660784" lon="105.391112"><ele>431.26556</ele><time>2026-04-08T21:56:54.000Z</time></trkpt>
        <trkpt lat="28.660832" lon="105.391122"><ele>430.7809</ele><time>2026-04-08T21:57:04.000Z</time></trkpt>
        <trkpt lat="28.660881" lon="105.391131"><ele>430.63467</ele><time>2026-04-08T21:57:10.000Z</time></trkpt>
        <trkpt lat="28.66093" lon="105.391129"><ele>429.75107</ele><time>2026-04-08T21:57:18.000Z</time></trkpt>
        <trkpt lat="28.66098" lon="105.391129"><ele>427.46188</ele><time>2026-04-08T21:57:24.000Z</time></trkpt>
        <trkpt lat="28.661029" lon="105.391127"><ele>426.74042</ele><time>2026-04-08T21:57:30.000Z</time></trkpt>
        <trkpt lat="28.66108" lon="105.391131"><ele>426.21625</ele><time>2026-04-08T21:57:36.000Z</time></trkpt>
        <trkpt lat="28.661126" lon="105.391136"><ele>426.19586</ele><time>2026-04-08T21:57:40.000Z</time></trkpt>
        <trkpt lat="28.661178" lon="105.391119"><ele>425.55887</ele><time>2026-04-08T21:57:46.000Z</time></trkpt>
        <trkpt lat="28.661224" lon="105.391121"><ele>425.398</ele><time>2026-04-08T21:57:50.000Z</time></trkpt>
        <trkpt lat="28.661273" lon="105.391149"><ele>423.29492</ele><time>2026-04-08T21:57:55.000Z</time></trkpt>
        <trkpt lat="28.661321" lon="105.391168"><ele>421.5595</ele><time>2026-04-08T21:57:59.000Z</time></trkpt>
        <trkpt lat="28.661354" lon="105.391213"><ele>421.9767</ele><time>2026-04-08T21:58:04.000Z</time></trkpt>
        <trkpt lat="28.661382" lon="105.391265"><ele>421.20764</ele><time>2026-04-08T21:58:11.000Z</time></trkpt>
        <trkpt lat="28.661418" lon="105.391297"><ele>420.91998</ele><time>2026-04-08T21:58:17.000Z</time></trkpt>
        <trkpt lat="28.661461" lon="105.391267"><ele>421.90005</ele><time>2026-04-08T21:58:26.000Z</time></trkpt>
        <trkpt lat="28.661506" lon="105.391291"><ele>421.21942</ele><time>2026-04-08T21:58:32.000Z</time></trkpt>
        <trkpt lat="28.661506" lon="105.391345"><ele>417.22394</ele><time>2026-04-08T21:58:40.000Z</time></trkpt>
        <trkpt lat="28.661487" lon="105.391404"><ele>416.27438</ele><time>2026-04-08T21:58:44.000Z</time></trkpt>
        <trkpt lat="28.66149" lon="105.391455"><ele>417.1394</ele><time>2026-04-08T21:58:50.000Z</time></trkpt>
        <trkpt lat="28.661504" lon="105.391504"><ele>416.34</ele><time>2026-04-08T21:58:56.000Z</time></trkpt>
        <trkpt lat="28.661484" lon="105.391552"><ele>416.53622</ele><time>2026-04-08T21:59:00.000Z</time></trkpt>
        <trkpt lat="28.661477" lon="105.391605"><ele>418.8993</ele><time>2026-04-08T21:59:05.000Z</time></trkpt>
        <trkpt lat="28.661455" lon="105.391657"><ele>417.68573</ele><time>2026-04-08T21:59:10.000Z</time></trkpt>
        <trkpt lat="28.661429" lon="105.391705"><ele>419.73563</ele><time>2026-04-08T21:59:16.000Z</time></trkpt>
        <trkpt lat="28.661403" lon="105.391758"><ele>420.05814</ele><time>2026-04-08T21:59:21.000Z</time></trkpt>
        <trkpt lat="28.661403" lon="105.391823"><ele>419.95865</ele><time>2026-04-08T21:59:27.000Z</time></trkpt>
        <trkpt lat="28.661428" lon="105.391874"><ele>419.99237</ele><time>2026-04-08T21:59:34.000Z</time></trkpt>
        <trkpt lat="28.661419" lon="105.391925"><ele>419.86987</ele><time>2026-04-08T21:59:45.000Z</time></trkpt>
        <trkpt lat="28.6614" lon="105.391984"><ele>418.95786</ele><time>2026-04-08T21:59:52.000Z</time></trkpt>
        <trkpt lat="28.661383" lon="105.392038"><ele>419.32666</ele><time>2026-04-08T21:59:59.000Z</time></trkpt>
        <trkpt lat="28.661386" lon="105.392092"><ele>419.3121</ele><time>2026-04-08T22:00:05.000Z</time></trkpt>
        <trkpt lat="28.66139" lon="105.39215"><ele>419.48587</ele><time>2026-04-08T22:00:10.000Z</time></trkpt>
        <trkpt lat="28.661348" lon="105.392172"><ele>419.82727</ele><time>2026-04-08T22:00:22.000Z</time></trkpt>
        <trkpt lat="28.66134" lon="105.392222"><ele>419.40292</ele><time>2026-04-08T22:00:27.000Z</time></trkpt>
        <trkpt lat="28.661305" lon="105.392261"><ele>417.6224</ele><time>2026-04-08T22:00:34.000Z</time></trkpt>
        <trkpt lat="28.661258" lon="105.392266"><ele>417.7278</ele><time>2026-04-08T22:00:40.000Z</time></trkpt>
        <trkpt lat="28.66121" lon="105.39229"><ele>416.96658</ele><time>2026-04-08T22:00:47.000Z</time></trkpt>
        <trkpt lat="28.661177" lon="105.392327"><ele>418.6216</ele><time>2026-04-08T22:00:51.000Z</time></trkpt>
        <trkpt lat="28.661155" lon="105.392375"><ele>419.4665</ele><time>2026-04-08T22:00:55.000Z</time></trkpt>
        <trkpt lat="28.661133" lon="105.392437"><ele>419.37772</ele><time>2026-04-08T22:01:00.000Z</time></trkpt>
        <trkpt lat="28.6611" lon="105.392475"><ele>419.6264</ele><time>2026-04-08T22:01:08.000Z</time></trkpt>
        <trkpt lat="28.661051" lon="105.392499"><ele>419.36874</ele><time>2026-04-08T22:01:15.000Z</time></trkpt>
        <trkpt lat="28.661014" lon="105.392539"><ele>418.96994</ele><time>2026-04-08T22:01:22.000Z</time></trkpt>
        <trkpt lat="28.660979" lon="105.392586"><ele>419.15988</ele><time>2026-04-08T22:01:28.000Z</time></trkpt>
        <trkpt lat="28.660943" lon="105.392622"><ele>420.2539</ele><time>2026-04-08T22:01:34.000Z</time></trkpt>
        <trkpt lat="28.660926" lon="105.392678"><ele>420.24472</ele><time>2026-04-08T22:01:38.000Z</time></trkpt>
        <trkpt lat="28.660923" lon="105.392746"><ele>419.29727</ele><time>2026-04-08T22:01:44.000Z</time></trkpt>
        <trkpt lat="28.660927" lon="105.392803"><ele>419.94363</ele><time>2026-04-08T22:01:49.000Z</time></trkpt>
        <trkpt lat="28.660917" lon="105.392855"><ele>418.7351</ele><time>2026-04-08T22:01:55.000Z</time></trkpt>
        <trkpt lat="28.660904" lon="105.392914"><ele>418.94693</ele><time>2026-04-08T22:02:00.000Z</time></trkpt>
        <trkpt lat="28.66091" lon="105.392971"><ele>416.92557</ele><time>2026-04-08T22:02:05.000Z</time></trkpt>
        <trkpt lat="28.660908" lon="105.393024"><ele>416.65225</ele><time>2026-04-08T22:02:11.000Z</time></trkpt>
        <trkpt lat="28.660913" lon="105.393076"><ele>417.09195</ele><time>2026-04-08T22:02:16.000Z</time></trkpt>
        <trkpt lat="28.660936" lon="105.393125"><ele>414.62604</ele><time>2026-04-08T22:02:23.000Z</time></trkpt>
        <trkpt lat="28.660939" lon="105.393182"><ele>414.0691</ele><time>2026-04-08T22:02:37.000Z</time></trkpt>
        <trkpt lat="28.660925" lon="105.39324"><ele>413.1836</ele><time>2026-04-08T22:02:43.000Z</time></trkpt>
        <trkpt lat="28.660928" lon="105.393299"><ele>411.869</ele><time>2026-04-08T22:02:50.000Z</time></trkpt>
        <trkpt lat="28.660922" lon="105.39335"><ele>411.03842</ele><time>2026-04-08T22:02:57.000Z</time></trkpt>
        <trkpt lat="28.660934" lon="105.393405"><ele>408.77206</ele><time>2026-04-08T22:03:04.000Z</time></trkpt>
        <trkpt lat="28.660947" lon="105.393456"><ele>408.64267</ele><time>2026-04-08T22:03:11.000Z</time></trkpt>
        <trkpt lat="28.660925" lon="105.393503"><ele>409.92206</ele><time>2026-04-08T22:03:16.000Z</time></trkpt>
        <trkpt lat="28.660896" lon="105.393545"><ele>411.5202</ele><time>2026-04-08T22:03:23.000Z</time></trkpt>
        <trkpt lat="28.660892" lon="105.393603"><ele>412.08707</ele><time>2026-04-08T22:03:30.000Z</time></trkpt>
        <trkpt lat="28.66088" lon="105.393661"><ele>412.3274</ele><time>2026-04-08T22:03:39.000Z</time></trkpt>
        <trkpt lat="28.660865" lon="105.39371"><ele>412.96475</ele><time>2026-04-08T22:03:43.000Z</time></trkpt>
        <trkpt lat="28.660871" lon="105.393763"><ele>412.9615</ele><time>2026-04-08T22:03:53.000Z</time></trkpt>
        <trkpt lat="28.660843" lon="105.393815"><ele>412.82956</ele><time>2026-04-08T22:04:02.000Z</time></trkpt>
        <trkpt lat="28.660807" lon="105.393849"><ele>414.05478</ele><time>2026-04-08T22:04:07.000Z</time></trkpt>
        <trkpt lat="28.660782" lon="105.393895"><ele>415.54922</ele><time>2026-04-08T22:04:13.000Z</time></trkpt>
        <trkpt lat="28.660717" lon="105.393903"><ele>412.96246</ele><time>2026-04-08T22:08:58.000Z</time></trkpt>
        <trkpt lat="28.660764" lon="105.393913"><ele>414.94852</ele><time>2026-04-08T22:09:18.000Z</time></trkpt>
        <trkpt lat="28.660779" lon="105.393968"><ele>420.43295</ele><time>2026-04-08T22:10:41.000Z</time></trkpt>
        <trkpt lat="28.660756" lon="105.394016"><ele>423.11505</ele><time>2026-04-08T22:10:51.000Z</time></trkpt>
        <trkpt lat="28.660739" lon="105.394063"><ele>422.5311</ele><time>2026-04-08T22:10:56.000Z</time></trkpt>
        <trkpt lat="28.660722" lon="105.394111"><ele>425.36884</ele><time>2026-04-08T22:11:03.000Z</time></trkpt>
        <trkpt lat="28.660712" lon="105.394166"><ele>427.86746</ele><time>2026-04-08T22:11:12.000Z</time></trkpt>
        <trkpt lat="28.660749" lon="105.394196"><ele>429.51584</ele><time>2026-04-08T22:11:20.000Z</time></trkpt>
        <trkpt lat="28.660757" lon="105.39425"><ele>428.68393</ele><time>2026-04-08T22:11:32.000Z</time></trkpt>
        <trkpt lat="28.660766" lon="105.394303"><ele>430.05615</ele><time>2026-04-08T22:11:53.000Z</time></trkpt>
        <trkpt lat="28.660758" lon="105.394361"><ele>428.66446</ele><time>2026-04-08T22:11:58.000Z</time></trkpt>
        <trkpt lat="28.660756" lon="105.394425"><ele>430.56342</ele><time>2026-04-08T22:12:03.000Z</time></trkpt>
        <trkpt lat="28.660752" lon="105.39448"><ele>431.42426</ele><time>2026-04-08T22:12:06.000Z</time></trkpt>
        <trkpt lat="28.660732" lon="105.394528"><ele>430.5945</ele><time>2026-04-08T22:12:10.000Z</time></trkpt>
        <trkpt lat="28.660732" lon="105.394586"><ele>429.84204</ele><time>2026-04-08T22:12:15.000Z</time></trkpt>
        <trkpt lat="28.660722" lon="105.394641"><ele>429.22546</ele><time>2026-04-08T22:12:23.000Z</time></trkpt>
        <trkpt lat="28.660723" lon="105.394693"><ele>428.14404</ele><time>2026-04-08T22:12:30.000Z</time></trkpt>
        <trkpt lat="28.660753" lon="105.394732"><ele>426.66946</ele><time>2026-04-08T22:12:36.000Z</time></trkpt>
        <trkpt lat="28.660767" lon="105.394787"><ele>427.03842</ele><time>2026-04-08T22:12:41.000Z</time></trkpt>
        <trkpt lat="28.660782" lon="105.39484"><ele>427.42047</ele><time>2026-04-08T22:12:47.000Z</time></trkpt>
        <trkpt lat="28.660808" lon="105.394887"><ele>429.5169</ele><time>2026-04-08T22:12:54.000Z</time></trkpt>
        <trkpt lat="28.660833" lon="105.394939"><ele>429.27542</ele><time>2026-04-08T22:13:01.000Z</time></trkpt>
        <trkpt lat="28.660864" lon="105.394978"><ele>428.903</ele><time>2026-04-08T22:13:08.000Z</time></trkpt>
        <trkpt lat="28.660892" lon="105.395018"><ele>429.56424</ele><time>2026-04-08T22:13:14.000Z</time></trkpt>
        <trkpt lat="28.660942" lon="105.395031"><ele>429.38892</ele><time>2026-04-08T22:13:18.000Z</time></trkpt>
        <trkpt lat="28.660986" lon="105.395022"><ele>429.9968</ele><time>2026-04-08T22:13:25.000Z</time></trkpt>
        <trkpt lat="28.661005" lon="105.39507"><ele>427.71335</ele><time>2026-04-08T22:13:29.000Z</time></trkpt>
        <trkpt lat="28.661023" lon="105.395124"><ele>425.88077</ele><time>2026-04-08T22:13:37.000Z</time></trkpt>
        <trkpt lat="28.661022" lon="105.395187"><ele>425.57324</ele><time>2026-04-08T22:13:44.000Z</time></trkpt>
        <trkpt lat="28.661043" lon="105.395237"><ele>427.6109</ele><time>2026-04-08T22:13:55.000Z</time></trkpt>
        <trkpt lat="28.661056" lon="105.39529"><ele>428.26382</ele><time>2026-04-08T22:14:01.000Z</time></trkpt>
        <trkpt lat="28.66107" lon="105.395351"><ele>428.94287</ele><time>2026-04-08T22:14:06.000Z</time></trkpt>
        <trkpt lat="28.661073" lon="105.395403"><ele>428.7</ele><time>2026-04-08T22:14:09.000Z</time></trkpt>
        <trkpt lat="28.661116" lon="105.39542"><ele>429.7079</ele><time>2026-04-08T22:14:14.000Z</time></trkpt>
        <trkpt lat="28.66117" lon="105.395422"><ele>429.77103</ele><time>2026-04-08T22:14:19.000Z</time></trkpt>
        <trkpt lat="28.661218" lon="105.395411"><ele>428.00436</ele><time>2026-04-08T22:14:24.000Z</time></trkpt>
        <trkpt lat="28.661272" lon="105.395413"><ele>426.40237</ele><time>2026-04-08T22:14:30.000Z</time></trkpt>
        <trkpt lat="28.661319" lon="105.395399"><ele>424.381</ele><time>2026-04-08T22:14:40.000Z</time></trkpt>
        <trkpt lat="28.661364" lon="105.395389"><ele>423.88873</ele><time>2026-04-08T22:14:48.000Z</time></trkpt>
        <trkpt lat="28.661408" lon="105.395366"><ele>424.2627</ele><time>2026-04-08T22:14:53.000Z</time></trkpt>
        <trkpt lat="28.661462" lon="105.395385"><ele>423.22556</ele><time>2026-04-08T22:15:01.000Z</time></trkpt>
        <trkpt lat="28.661501" lon="105.395412"><ele>421.5507</ele><time>2026-04-08T22:15:07.000Z</time></trkpt>
        <trkpt lat="28.661531" lon="105.395458"><ele>419.96228</ele><time>2026-04-08T22:15:12.000Z</time></trkpt>
        <trkpt lat="28.661568" lon="105.395497"><ele>418.29105</ele><time>2026-04-08T22:15:17.000Z</time></trkpt>
        <trkpt lat="28.661606" lon="105.395529"><ele>417.6</ele><time>2026-04-08T22:15:23.000Z</time></trkpt>
        <trkpt lat="28.66163" lon="105.395582"><ele>417.8851</ele><time>2026-04-08T22:15:30.000Z</time></trkpt>
        <trkpt lat="28.661675" lon="105.395619"><ele>417.40796</ele><time>2026-04-08T22:15:36.000Z</time></trkpt>
        <trkpt lat="28.661695" lon="105.39567"><ele>417.97818</ele><time>2026-04-08T22:15:40.000Z</time></trkpt>
        <trkpt lat="28.661734" lon="105.395705"><ele>418.60724</ele><time>2026-04-08T22:15:45.000Z</time></trkpt>
        <trkpt lat="28.661783" lon="105.39575"><ele>417.6504</ele><time>2026-04-08T22:15:52.000Z</time></trkpt>
        <trkpt lat="28.661818" lon="105.395789"><ele>416.1205</ele><time>2026-04-08T22:15:59.000Z</time></trkpt>
        <trkpt lat="28.661837" lon="105.395858"><ele>417.05075</ele><time>2026-04-08T22:16:05.000Z</time></trkpt>
        <trkpt lat="28.661831" lon="105.395911"><ele>417.28223</ele><time>2026-04-08T22:16:10.000Z</time></trkpt>
        <trkpt lat="28.661812" lon="105.395974"><ele>419.01416</ele><time>2026-04-08T22:16:16.000Z</time></trkpt>
        <trkpt lat="28.661778" lon="105.396028"><ele>420.48547</ele><time>2026-04-08T22:16:22.000Z</time></trkpt>
        <trkpt lat="28.66175" lon="105.396086"><ele>422.60132</ele><time>2026-04-08T22:16:29.000Z</time></trkpt>
        <trkpt lat="28.661749" lon="105.39614"><ele>425.39163</ele><time>2026-04-08T22:16:38.000Z</time></trkpt>
        <trkpt lat="28.661775" lon="105.396187"><ele>425.56384</ele><time>2026-04-08T22:16:48.000Z</time></trkpt>
        <trkpt lat="28.661811" lon="105.396234"><ele>424.94452</ele><time>2026-04-08T22:17:00.000Z</time></trkpt>
        <trkpt lat="28.661839" lon="105.396275"><ele>423.62228</ele><time>2026-04-08T22:17:08.000Z</time></trkpt>
        <trkpt lat="28.661875" lon="105.396309"><ele>422.59872</ele><time>2026-04-08T22:17:12.000Z</time></trkpt>
        <trkpt lat="28.661869" lon="105.396362"><ele>424.0612</ele><time>2026-04-08T22:17:20.000Z</time></trkpt>
        <trkpt lat="28.661856" lon="105.396412"><ele>424.56415</ele><time>2026-04-08T22:17:27.000Z</time></trkpt>
        <trkpt lat="28.661825" lon="105.396452"><ele>425.38474</ele><time>2026-04-08T22:17:37.000Z</time></trkpt>
        <trkpt lat="28.661784" lon="105.39648"><ele>427.82684</ele><time>2026-04-08T22:17:45.000Z</time></trkpt>
        <trkpt lat="28.661747" lon="105.396515"><ele>428.44058</ele><time>2026-04-08T22:17:52.000Z</time></trkpt>
        <trkpt lat="28.661703" lon="105.396528"><ele>428.19733</ele><time>2026-04-08T22:18:03.000Z</time></trkpt>
        <trkpt lat="28.661659" lon="105.396543"><ele>428.1531</ele><time>2026-04-08T22:18:08.000Z</time></trkpt>
        <trkpt lat="28.661611" lon="105.396586"><ele>429.73837</ele><time>2026-04-08T22:18:13.000Z</time></trkpt>
        <trkpt lat="28.661566" lon="105.396593"><ele>430.2654</ele><time>2026-04-08T22:18:18.000Z</time></trkpt>
        <trkpt lat="28.661523" lon="105.396616"><ele>430.56992</ele><time>2026-04-08T22:18:23.000Z</time></trkpt>
        <trkpt lat="28.661473" lon="105.396629"><ele>430.04785</ele><time>2026-04-08T22:18:29.000Z</time></trkpt>
        <trkpt lat="28.661432" lon="105.396659"><ele>430.5173</ele><time>2026-04-08T22:18:33.000Z</time></trkpt>
        <trkpt lat="28.661391" lon="105.396681"><ele>430.48285</ele><time>2026-04-08T22:18:38.000Z</time></trkpt>
        <trkpt lat="28.661347" lon="105.396696"><ele>429.92245</ele><time>2026-04-08T22:18:42.000Z</time></trkpt>
        <trkpt lat="28.661308" lon="105.396723"><ele>430.69693</ele><time>2026-04-08T22:18:48.000Z</time></trkpt>
        <trkpt lat="28.661292" lon="105.396774"><ele>430.70517</ele><time>2026-04-08T22:18:57.000Z</time></trkpt>
        <trkpt lat="28.661241" lon="105.396807"><ele>428.92502</ele><time>2026-04-08T22:19:07.000Z</time></trkpt>
        <trkpt lat="28.661186" lon="105.396791"><ele>429.60754</ele><time>2026-04-08T22:19:14.000Z</time></trkpt>
        <trkpt lat="28.661138" lon="105.396773"><ele>429.6337</ele><time>2026-04-08T22:19:18.000Z</time></trkpt>
        <trkpt lat="28.661094" lon="105.396757"><ele>431.86768</ele><time>2026-04-08T22:19:24.000Z</time></trkpt>
        <trkpt lat="28.66105" lon="105.396741"><ele>432.41565</ele><time>2026-04-08T22:19:29.000Z</time></trkpt>
        <trkpt lat="28.66101" lon="105.396705"><ele>433.0037</ele><time>2026-04-08T22:19:38.000Z</time></trkpt>
        <trkpt lat="28.660977" lon="105.396743"><ele>433.2473</ele><time>2026-04-08T22:19:44.000Z</time></trkpt>
        <trkpt lat="28.660947" lon="105.396812"><ele>433.6261</ele><time>2026-04-08T22:19:52.000Z</time></trkpt>
        <trkpt lat="28.660927" lon="105.396868"><ele>432.03198</ele><time>2026-04-08T22:19:55.000Z</time></trkpt>
        <trkpt lat="28.660921" lon="105.396922"><ele>428.39944</ele><time>2026-04-08T22:20:04.000Z</time></trkpt>
        <trkpt lat="28.660904" lon="105.396983"><ele>427.93774</ele><time>2026-04-08T22:20:11.000Z</time></trkpt>
        <trkpt lat="28.660928" lon="105.397028"><ele>428.21466</ele><time>2026-04-08T22:20:16.000Z</time></trkpt>
        <trkpt lat="28.660904" lon="105.397074"><ele>428.4623</ele><time>2026-04-08T22:20:26.000Z</time></trkpt>
        <trkpt lat="28.66087" lon="105.397123"><ele>429.31866</ele><time>2026-04-08T22:20:32.000Z</time></trkpt>
        <trkpt lat="28.660847" lon="105.397169"><ele>428.69086</ele><time>2026-04-08T22:20:36.000Z</time></trkpt>
        <trkpt lat="28.660822" lon="105.397215"><ele>430.03726</ele><time>2026-04-08T22:20:43.000Z</time></trkpt>
        <trkpt lat="28.660783" lon="105.397187"><ele>430.06003</ele><time>2026-04-08T22:20:47.000Z</time></trkpt>
        <trkpt lat="28.66074" lon="105.397161"><ele>429.9012</ele><time>2026-04-08T22:20:53.000Z</time></trkpt>
        <trkpt lat="28.660693" lon="105.397128"><ele>429.94626</ele><time>2026-04-08T22:20:58.000Z</time></trkpt>
        <trkpt lat="28.660659" lon="105.397083"><ele>431.03555</ele><time>2026-04-08T22:21:05.000Z</time></trkpt>
        <trkpt lat="28.660631" lon="105.397041"><ele>429.64124</ele><time>2026-04-08T22:21:18.000Z</time></trkpt>
        <trkpt lat="28.660593" lon="105.397012"><ele>428.86398</ele><time>2026-04-08T22:21:25.000Z</time></trkpt>
        <trkpt lat="28.660643" lon="105.397001"><ele>428.70178</ele><time>2026-04-08T22:22:41.000Z</time></trkpt>
        <trkpt lat="28.660617" lon="105.396955"><ele>430.2608</ele><time>2026-04-08T22:24:24.000Z</time></trkpt>
        <trkpt lat="28.660573" lon="105.396991"><ele>430.66995</ele><time>2026-04-08T22:26:08.000Z</time></trkpt>
        <trkpt lat="28.660618" lon="105.396994"><ele>429.95657</ele><time>2026-04-08T22:26:52.000Z</time></trkpt>
        <trkpt lat="28.660582" lon="105.396957"><ele>429.61917</ele><time>2026-04-08T22:29:50.000Z</time></trkpt>
        <trkpt lat="28.66062" lon="105.396999"><ele>429.39203</ele><time>2026-04-08T22:30:31.000Z</time></trkpt>
        <trkpt lat="28.66067" lon="105.396999"><ele>429.63776</ele><time>2026-04-08T22:31:08.000Z</time></trkpt>
        <trkpt lat="28.660715" lon="105.39699"><ele>427.67075</ele><time>2026-04-08T22:37:42.000Z</time></trkpt>
        <trkpt lat="28.660666" lon="105.397006"><ele>427.11838</ele><time>2026-04-08T22:45:35.000Z</time></trkpt>
        <trkpt lat="28.660624" lon="105.397027"><ele>427.8627</ele><time>2026-04-08T22:46:01.000Z</time></trkpt>
        <trkpt lat="28.660583" lon="105.397005"><ele>429.22455</ele><time>2026-04-08T22:46:28.000Z</time></trkpt>
        <trkpt lat="28.660627" lon="105.396993"><ele>429.1177</ele><time>2026-04-08T22:49:06.000Z</time></trkpt>
        <trkpt lat="28.660629" lon="105.397045"><ele>427.78342</ele><time>2026-04-08T22:49:30.000Z</time></trkpt>
        <trkpt lat="28.660626" lon="105.3971"><ele>427.1811</ele><time>2026-04-08T22:49:39.000Z</time></trkpt>
        <trkpt lat="28.660671" lon="105.397128"><ele>427.2199</ele><time>2026-04-08T22:49:42.000Z</time></trkpt>
        <trkpt lat="28.66071" lon="105.397162"><ele>427.6997</ele><time>2026-04-08T22:49:46.000Z</time></trkpt>
        <trkpt lat="28.660752" lon="105.397188"><ele>427.7336</ele><time>2026-04-08T22:50:08.000Z</time></trkpt>
        <trkpt lat="28.660795" lon="105.397209"><ele>428.3903</ele><time>2026-04-08T22:50:21.000Z</time></trkpt>
        <trkpt lat="28.660844" lon="105.397213"><ele>428.43494</ele><time>2026-04-08T22:50:30.000Z</time></trkpt>
        <trkpt lat="28.660864" lon="105.397166"><ele>428.09296</ele><time>2026-04-08T22:50:40.000Z</time></trkpt>
        <trkpt lat="28.660896" lon="105.397119"><ele>428.3523</ele><time>2026-04-08T22:50:46.000Z</time></trkpt>
        <trkpt lat="28.660942" lon="105.397074"><ele>428.82788</ele><time>2026-04-08T22:50:58.000Z</time></trkpt>
        <trkpt lat="28.660984" lon="105.397052"><ele>426.33466</ele><time>2026-04-08T22:51:25.000Z</time></trkpt>
        <trkpt lat="28.661031" lon="105.397067"><ele>427.30475</ele><time>2026-04-08T22:51:35.000Z</time></trkpt>
        <trkpt lat="28.661076" lon="105.397095"><ele>428.9692</ele><time>2026-04-08T22:51:42.000Z</time></trkpt>
        <trkpt lat="28.661115" lon="105.397124"><ele>428.139</ele><time>2026-04-08T22:51:47.000Z</time></trkpt>
        <trkpt lat="28.661166" lon="105.397145"><ele>429.00784</ele><time>2026-04-08T22:51:54.000Z</time></trkpt>
        <trkpt lat="28.661215" lon="105.397183"><ele>430.04102</ele><time>2026-04-08T22:51:59.000Z</time></trkpt>
        <trkpt lat="28.66126" lon="105.397211"><ele>429.31607</ele><time>2026-04-08T22:52:04.000Z</time></trkpt>
        <trkpt lat="28.661312" lon="105.397242"><ele>429.50253</ele><time>2026-04-08T22:52:10.000Z</time></trkpt>
        <trkpt lat="28.661354" lon="105.397268"><ele>429.67834</ele><time>2026-04-08T22:52:15.000Z</time></trkpt>
        <trkpt lat="28.661397" lon="105.397287"><ele>431.18576</ele><time>2026-04-08T22:52:21.000Z</time></trkpt>
        <trkpt lat="28.661443" lon="105.397276"><ele>429.80884</ele><time>2026-04-08T22:52:26.000Z</time></trkpt>
        <trkpt lat="28.661489" lon="105.397254"><ele>429.625</ele><time>2026-04-08T22:52:30.000Z</time></trkpt>
        <trkpt lat="28.661538" lon="105.397253"><ele>427.6717</ele><time>2026-04-08T22:52:34.000Z</time></trkpt>
        <trkpt lat="28.661586" lon="105.397264"><ele>426.8711</ele><time>2026-04-08T22:52:39.000Z</time></trkpt>
        <trkpt lat="28.661621" lon="105.397299"><ele>425.93237</ele><time>2026-04-08T22:52:43.000Z</time></trkpt>
        <trkpt lat="28.661657" lon="105.39733"><ele>424.7573</ele><time>2026-04-08T22:52:49.000Z</time></trkpt>
        <trkpt lat="28.661706" lon="105.397363"><ele>423.52267</ele><time>2026-04-08T22:52:56.000Z</time></trkpt>
        <trkpt lat="28.661754" lon="105.397391"><ele>423.59927</ele><time>2026-04-08T22:53:04.000Z</time></trkpt>
        <trkpt lat="28.661778" lon="105.397436"><ele>422.39594</ele><time>2026-04-08T22:53:16.000Z</time></trkpt>
        <trkpt lat="28.661797" lon="105.397488"><ele>423.57263</ele><time>2026-04-08T22:53:26.000Z</time></trkpt>
        <trkpt lat="28.661821" lon="105.397535"><ele>422.66052</ele><time>2026-04-08T22:53:34.000Z</time></trkpt>
        <trkpt lat="28.661841" lon="105.397587"><ele>421.9923</ele><time>2026-04-08T22:53:43.000Z</time></trkpt>
        <trkpt lat="28.661865" lon="105.397642"><ele>420.94608</ele><time>2026-04-08T22:53:51.000Z</time></trkpt>
        <trkpt lat="28.661879" lon="105.397692"><ele>419.24228</ele><time>2026-04-08T22:53:59.000Z</time></trkpt>
        <trkpt lat="28.661905" lon="105.397735"><ele>418.68747</ele><time>2026-04-08T22:54:42.000Z</time></trkpt>
        <trkpt lat="28.661907" lon="105.397788"><ele>416.95267</ele><time>2026-04-08T22:54:48.000Z</time></trkpt>
        <trkpt lat="28.66189" lon="105.397847"><ele>415.29742</ele><time>2026-04-08T22:54:55.000Z</time></trkpt>
        <trkpt lat="28.661862" lon="105.397893"><ele>413.70352</ele><time>2026-04-08T22:55:02.000Z</time></trkpt>
        <trkpt lat="28.661868" lon="105.397945"><ele>413.437</ele><time>2026-04-08T22:55:08.000Z</time></trkpt>
        <trkpt lat="28.661892" lon="105.397995"><ele>411.9734</ele><time>2026-04-08T22:55:17.000Z</time></trkpt>
        <trkpt lat="28.661917" lon="105.398048"><ele>410.74075</ele><time>2026-04-08T22:55:24.000Z</time></trkpt>
        <trkpt lat="28.661949" lon="105.39809"><ele>409.64905</ele><time>2026-04-08T22:55:39.000Z</time></trkpt>
        <trkpt lat="28.661987" lon="105.398138"><ele>407.4837</ele><time>2026-04-08T22:55:46.000Z</time></trkpt>
        <trkpt lat="28.662025" lon="105.398181"><ele>405.94714</ele><time>2026-04-08T22:55:55.000Z</time></trkpt>
        <trkpt lat="28.662035" lon="105.398236"><ele>404.80417</ele><time>2026-04-08T22:56:01.000Z</time></trkpt>
        <trkpt lat="28.662047" lon="105.398291"><ele>403.77774</ele><time>2026-04-08T22:56:07.000Z</time></trkpt>
        <trkpt lat="28.662065" lon="105.398338"><ele>401.67075</ele><time>2026-04-08T22:56:13.000Z</time></trkpt>
        <trkpt lat="28.662055" lon="105.398287"><ele>402.2242</ele><time>2026-04-08T22:56:23.000Z</time></trkpt>
        <trkpt lat="28.662064" lon="105.398339"><ele>401.5635</ele><time>2026-04-08T22:56:40.000Z</time></trkpt>
        <trkpt lat="28.662071" lon="105.398399"><ele>401.71158</ele><time>2026-04-08T22:56:47.000Z</time></trkpt>
        <trkpt lat="28.662066" lon="105.398451"><ele>401.10898</ele><time>2026-04-08T22:56:51.000Z</time></trkpt>
        <trkpt lat="28.662055" lon="105.398505"><ele>399.38373</ele><time>2026-04-08T22:56:59.000Z</time></trkpt>
        <trkpt lat="28.662058" lon="105.398564"><ele>399.39044</ele><time>2026-04-08T22:57:04.000Z</time></trkpt>
        <trkpt lat="28.662031" lon="105.398607"><ele>398.33023</ele><time>2026-04-08T22:57:10.000Z</time></trkpt>
        <trkpt lat="28.66201" lon="105.398654"><ele>399.26633</ele><time>2026-04-08T22:57:14.000Z</time></trkpt>
        <trkpt lat="28.661998" lon="105.398712"><ele>400.20444</ele><time>2026-04-08T22:57:20.000Z</time></trkpt>
        <trkpt lat="28.661994" lon="105.398765"><ele>402.26425</ele><time>2026-04-08T22:57:28.000Z</time></trkpt>
        <trkpt lat="28.662013" lon="105.398812"><ele>401.552</ele><time>2026-04-08T22:57:34.000Z</time></trkpt>
        <trkpt lat="28.662059" lon="105.398844"><ele>401.122</ele><time>2026-04-08T22:57:42.000Z</time></trkpt>
        <trkpt lat="28.662086" lon="105.398891"><ele>401.36197</ele><time>2026-04-08T22:57:48.000Z</time></trkpt>
        <trkpt lat="28.66211" lon="105.398934"><ele>400.01382</ele><time>2026-04-08T22:57:55.000Z</time></trkpt>
        <trkpt lat="28.662126" lon="105.398987"><ele>399.6403</ele><time>2026-04-08T22:57:59.000Z</time></trkpt>
        <trkpt lat="28.662146" lon="105.399044"><ele>399.27097</ele><time>2026-04-08T22:58:04.000Z</time></trkpt>
        <trkpt lat="28.662168" lon="105.399101"><ele>397.25632</ele><time>2026-04-08T22:58:10.000Z</time></trkpt>
        <trkpt lat="28.662214" lon="105.399091"><ele>395.73306</ele><time>2026-04-08T22:58:25.000Z</time></trkpt>
        <trkpt lat="28.662256" lon="105.399072"><ele>394.18494</ele><time>2026-04-08T22:58:32.000Z</time></trkpt>
        <trkpt lat="28.662304" lon="105.399061"><ele>394.94785</ele><time>2026-04-08T22:58:39.000Z</time></trkpt>
        <trkpt lat="28.662346" lon="105.399038"><ele>395.70932</ele><time>2026-04-08T22:58:46.000Z</time></trkpt>
        <trkpt lat="28.662394" lon="105.399019"><ele>396.86365</ele><time>2026-04-08T22:59:13.000Z</time></trkpt>
        <trkpt lat="28.662384" lon="105.398967"><ele>396.77905</ele><time>2026-04-08T22:59:40.000Z</time></trkpt>
        <trkpt lat="28.662376" lon="105.398912"><ele>395.0359</ele><time>2026-04-08T23:00:26.000Z</time></trkpt>
        <trkpt lat="28.662355" lon="105.398865"><ele>394.14072</ele><time>2026-04-08T23:00:32.000Z</time></trkpt>
        <trkpt lat="28.662333" lon="105.39882"><ele>393.5075</ele><time>2026-04-08T23:00:39.000Z</time></trkpt>
        <trkpt lat="28.662318" lon="105.39876"><ele>393.69122</ele><time>2026-04-08T23:00:44.000Z</time></trkpt>
        <trkpt lat="28.662303" lon="105.398704"><ele>391.99356</ele><time>2026-04-08T23:00:48.000Z</time></trkpt>
        <trkpt lat="28.662328" lon="105.398661"><ele>391.39014</ele><time>2026-04-08T23:00:51.000Z</time></trkpt>
        <trkpt lat="28.662344" lon="105.398605"><ele>391.24826</ele><time>2026-04-08T23:00:58.000Z</time></trkpt>
        <trkpt lat="28.66238" lon="105.398566"><ele>391.23938</ele><time>2026-04-08T23:01:03.000Z</time></trkpt>
        <trkpt lat="28.662409" lon="105.398521"><ele>390.25952</ele><time>2026-04-08T23:01:19.000Z</time></trkpt>
        <trkpt lat="28.662361" lon="105.398511"><ele>391.56192</ele><time>2026-04-08T23:01:44.000Z</time></trkpt>
        <trkpt lat="28.662369" lon="105.398566"><ele>391.2263</ele><time>2026-04-08T23:01:59.000Z</time></trkpt>
        <trkpt lat="28.662341" lon="105.398524"><ele>390.31796</ele><time>2026-04-08T23:08:11.000Z</time></trkpt>
        <trkpt lat="28.66244" lon="105.398427"><ele>391.23172</ele><time>2026-04-08T23:08:47.000Z</time></trkpt>
        <trkpt lat="28.662397" lon="105.398469"><ele>389.8723</ele><time>2026-04-08T23:09:15.000Z</time></trkpt>
        <trkpt lat="28.662366" lon="105.39851"><ele>389.5495</ele><time>2026-04-08T23:09:23.000Z</time></trkpt>
        <trkpt lat="28.662399" lon="105.398546"><ele>390.72897</ele><time>2026-04-08T23:09:49.000Z</time></trkpt>
        <trkpt lat="28.662445" lon="105.398528"><ele>389.21155</ele><time>2026-04-08T23:10:12.000Z</time></trkpt>
        <trkpt lat="28.662497" lon="105.398532"><ele>388.54248</ele><time>2026-04-08T23:10:20.000Z</time></trkpt>
        <trkpt lat="28.662545" lon="105.398554"><ele>390.36038</ele><time>2026-04-08T23:10:27.000Z</time></trkpt>
        <trkpt lat="28.662588" lon="105.398573"><ele>390.84802</ele><time>2026-04-08T23:10:35.000Z</time></trkpt>
        <trkpt lat="28.66263" lon="105.398597"><ele>390.35593</ele><time>2026-04-08T23:10:43.000Z</time></trkpt>
        <trkpt lat="28.662677" lon="105.398623"><ele>392.64395</ele><time>2026-04-08T23:10:57.000Z</time></trkpt>
        <trkpt lat="28.662718" lon="105.398599"><ele>392.2353</ele><time>2026-04-08T23:11:05.000Z</time></trkpt>
        <trkpt lat="28.662757" lon="105.398554"><ele>392.11624</ele><time>2026-04-08T23:11:16.000Z</time></trkpt>
        <trkpt lat="28.662782" lon="105.398508"><ele>391.24612</ele><time>2026-04-08T23:11:38.000Z</time></trkpt>
        <trkpt lat="28.66282" lon="105.398464"><ele>390.3994</ele><time>2026-04-08T23:11:45.000Z</time></trkpt>
        <trkpt lat="28.662847" lon="105.398415"><ele>387.1886</ele><time>2026-04-08T23:12:04.000Z</time></trkpt>
        <trkpt lat="28.662872" lon="105.398371"><ele>384.71088</ele><time>2026-04-08T23:12:16.000Z</time></trkpt>
        <trkpt lat="28.662896" lon="105.398327"><ele>382.28232</ele><time>2026-04-08T23:12:24.000Z</time></trkpt>
        <trkpt lat="28.662914" lon="105.39828"><ele>380.98837</ele><time>2026-04-08T23:12:35.000Z</time></trkpt>
        <trkpt lat="28.662928" lon="105.39823"><ele>379.65778</ele><time>2026-04-08T23:12:42.000Z</time></trkpt>
        <trkpt lat="28.662901" lon="105.398183"><ele>378.17606</ele><time>2026-04-08T23:13:05.000Z</time></trkpt>
        <trkpt lat="28.662859" lon="105.398145"><ele>380.16165</ele><time>2026-04-08T23:13:19.000Z</time></trkpt>
        <trkpt lat="28.662841" lon="105.398098"><ele>380.6852</ele><time>2026-04-08T23:13:34.000Z</time></trkpt>
        <trkpt lat="28.662858" lon="105.398147"><ele>381.84155</ele><time>2026-04-08T23:13:42.000Z</time></trkpt>
        <trkpt lat="28.662814" lon="105.39818"><ele>381.9903</ele><time>2026-04-08T23:13:49.000Z</time></trkpt>
        <trkpt lat="28.662783" lon="105.398218"><ele>383.5371</ele><time>2026-04-08T23:13:57.000Z</time></trkpt>
        <trkpt lat="28.66273" lon="105.398218"><ele>384.50085</ele><time>2026-04-08T23:14:05.000Z</time></trkpt>
        <trkpt lat="28.662686" lon="105.398235"><ele>385.06683</ele><time>2026-04-08T23:14:12.000Z</time></trkpt>
        <trkpt lat="28.66264" lon="105.398231"><ele>385.38116</ele><time>2026-04-08T23:14:20.000Z</time></trkpt>
        <trkpt lat="28.662691" lon="105.398214"><ele>386.56277</ele><time>2026-04-08T23:15:17.000Z</time></trkpt>
        <trkpt lat="28.662678" lon="105.398154"><ele>384.74304</ele><time>2026-04-08T23:15:25.000Z</time></trkpt>
        <trkpt lat="28.662658" lon="105.398099"><ele>386.08276</ele><time>2026-04-08T23:15:33.000Z</time></trkpt>
        <trkpt lat="28.662699" lon="105.398058"><ele>386.4169</ele><time>2026-04-08T23:15:49.000Z</time></trkpt>
        <trkpt lat="28.662739" lon="105.398033"><ele>386.2344</ele><time>2026-04-08T23:15:55.000Z</time></trkpt>
        <trkpt lat="28.662792" lon="105.398009"><ele>384.72873</ele><time>2026-04-08T23:16:31.000Z</time></trkpt>
        <trkpt lat="28.662835" lon="105.397994"><ele>381.46445</ele><time>2026-04-08T23:16:39.000Z</time></trkpt>
        <trkpt lat="28.662868" lon="105.397954"><ele>381.19598</ele><time>2026-04-08T23:16:44.000Z</time></trkpt>
        <trkpt lat="28.662898" lon="105.397905"><ele>381.22485</ele><time>2026-04-08T23:16:49.000Z</time></trkpt>
        <trkpt lat="28.662943" lon="105.397881"><ele>379.789</ele><time>2026-04-08T23:16:55.000Z</time></trkpt>
        <trkpt lat="28.662984" lon="105.397851"><ele>376.39566</ele><time>2026-04-08T23:17:02.000Z</time></trkpt>
        <trkpt lat="28.663031" lon="105.397825"><ele>373.4739</ele><time>2026-04-08T23:17:11.000Z</time></trkpt>
        <trkpt lat="28.66307" lon="105.397791"><ele>371.62372</ele><time>2026-04-08T23:17:21.000Z</time></trkpt>
        <trkpt lat="28.663091" lon="105.397732"><ele>372.0981</ele><time>2026-04-08T23:17:25.000Z</time></trkpt>
        <trkpt lat="28.66311" lon="105.397673"><ele>373.5308</ele><time>2026-04-08T23:17:29.000Z</time></trkpt>
        <trkpt lat="28.663125" lon="105.397615"><ele>374.5679</ele><time>2026-04-08T23:17:33.000Z</time></trkpt>
        <trkpt lat="28.663131" lon="105.39755"><ele>376.37637</ele><time>2026-04-08T23:17:37.000Z</time></trkpt>
        <trkpt lat="28.663131" lon="105.397495"><ele>378.4879</ele><time>2026-04-08T23:17:41.000Z</time></trkpt>
        <trkpt lat="28.66315" lon="105.397435"><ele>378.54053</ele><time>2026-04-08T23:17:45.000Z</time></trkpt>
        <trkpt lat="28.663151" lon="105.397384"><ele>377.96152</ele><time>2026-04-08T23:17:50.000Z</time></trkpt>
        <trkpt lat="28.663164" lon="105.397328"><ele>377.16055</ele><time>2026-04-08T23:17:55.000Z</time></trkpt>
        <trkpt lat="28.663182" lon="105.397274"><ele>376.32172</ele><time>2026-04-08T23:17:59.000Z</time></trkpt>
        <trkpt lat="28.663201" lon="105.397219"><ele>376.0715</ele><time>2026-04-08T23:18:06.000Z</time></trkpt>
        <trkpt lat="28.663219" lon="105.397164"><ele>373.95926</ele><time>2026-04-08T23:18:16.000Z</time></trkpt>
        <trkpt lat="28.663206" lon="105.397107"><ele>370.75726</ele><time>2026-04-08T23:18:24.000Z</time></trkpt>
        <trkpt lat="28.663175" lon="105.39707"><ele>369.90845</ele><time>2026-04-08T23:18:29.000Z</time></trkpt>
        <trkpt lat="28.663158" lon="105.39702"><ele>367.53583</ele><time>2026-04-08T23:18:44.000Z</time></trkpt>
        <trkpt lat="28.663124" lon="105.396984"><ele>365.99756</ele><time>2026-04-08T23:18:50.000Z</time></trkpt>
        <trkpt lat="28.663123" lon="105.396932"><ele>364.79953</ele><time>2026-04-08T23:18:55.000Z</time></trkpt>
        <trkpt lat="28.663114" lon="105.396878"><ele>361.685</ele><time>2026-04-08T23:19:00.000Z</time></trkpt>
        <trkpt lat="28.663114" lon="105.396822"><ele>359.13342</ele><time>2026-04-08T23:19:08.000Z</time></trkpt>
        <trkpt lat="28.663121" lon="105.396761"><ele>355.11362</ele><time>2026-04-08T23:19:17.000Z</time></trkpt>
        <trkpt lat="28.663107" lon="105.396708"><ele>350.55557</ele><time>2026-04-08T23:19:23.000Z</time></trkpt>
        <trkpt lat="28.663098" lon="105.39665"><ele>347.22614</ele><time>2026-04-08T23:19:35.000Z</time></trkpt>
        <trkpt lat="28.663068" lon="105.396608"><ele>346.58682</ele><time>2026-04-08T23:19:39.000Z</time></trkpt>
        <trkpt lat="28.663039" lon="105.396561"><ele>346.1409</ele><time>2026-04-08T23:19:46.000Z</time></trkpt>
        <trkpt lat="28.663001" lon="105.396531"><ele>345.772</ele><time>2026-04-08T23:19:52.000Z</time></trkpt>
        <trkpt lat="28.662977" lon="105.396484"><ele>345.42712</ele><time>2026-04-08T23:19:58.000Z</time></trkpt>
        <trkpt lat="28.662958" lon="105.396434"><ele>345.1951</ele><time>2026-04-08T23:20:05.000Z</time></trkpt>
        <trkpt lat="28.662929" lon="105.396388"><ele>344.20517</ele><time>2026-04-08T23:20:13.000Z</time></trkpt>
        <trkpt lat="28.662899" lon="105.396343"><ele>345.52838</ele><time>2026-04-08T23:20:20.000Z</time></trkpt>
        <trkpt lat="28.662869" lon="105.396298"><ele>345.2168</ele><time>2026-04-08T23:20:27.000Z</time></trkpt>
        <trkpt lat="28.662855" lon="105.396242"><ele>345.28473</ele><time>2026-04-08T23:20:34.000Z</time></trkpt>
        <trkpt lat="28.662822" lon="105.396205"><ele>344.7453</ele><time>2026-04-08T23:20:40.000Z</time></trkpt>
        <trkpt lat="28.662787" lon="105.396166"><ele>345.0786</ele><time>2026-04-08T23:20:47.000Z</time></trkpt>
        <trkpt lat="28.662776" lon="105.396111"><ele>343.2599</ele><time>2026-04-08T23:20:53.000Z</time></trkpt>
        <trkpt lat="28.662742" lon="105.396067"><ele>341.6882</ele><time>2026-04-08T23:21:01.000Z</time></trkpt>
        <trkpt lat="28.6627" lon="105.396045"><ele>342.45007</ele><time>2026-04-08T23:21:06.000Z</time></trkpt>
        <trkpt lat="28.662676" lon="105.395991"><ele>343.11356</ele><time>2026-04-08T23:21:12.000Z</time></trkpt>
        <trkpt lat="28.662668" lon="105.395926"><ele>342.1407</ele><time>2026-04-08T23:21:19.000Z</time></trkpt>
        <trkpt lat="28.662649" lon="105.395875"><ele>341.1579</ele><time>2026-04-08T23:21:25.000Z</time></trkpt>
        <trkpt lat="28.662633" lon="105.395815"><ele>340.1481</ele><time>2026-04-08T23:21:52.000Z</time></trkpt>
        <trkpt lat="28.662624" lon="105.395758"><ele>339.83063</ele><time>2026-04-08T23:21:56.000Z</time></trkpt>
        <trkpt lat="28.662584" lon="105.395707"><ele>339.62302</ele><time>2026-04-08T23:22:03.000Z</time></trkpt>
        <trkpt lat="28.662564" lon="105.395657"><ele>339.1303</ele><time>2026-04-08T23:22:08.000Z</time></trkpt>
        <trkpt lat="28.662523" lon="105.395633"><ele>338.2351</ele><time>2026-04-08T23:22:12.000Z</time></trkpt>
        <trkpt lat="28.66249" lon="105.395597"><ele>337.35345</ele><time>2026-04-08T23:22:16.000Z</time></trkpt>
        <trkpt lat="28.662463" lon="105.395548"><ele>336.71536</ele><time>2026-04-08T23:22:20.000Z</time></trkpt>
        <trkpt lat="28.662445" lon="105.395496"><ele>336.5392</ele><time>2026-04-08T23:22:23.000Z</time></trkpt>
        <trkpt lat="28.662421" lon="105.395447"><ele>335.9157</ele><time>2026-04-08T23:22:27.000Z</time></trkpt>
        <trkpt lat="28.66239" lon="105.3954"><ele>337.21033</ele><time>2026-04-08T23:22:31.000Z</time></trkpt>
        <trkpt lat="28.662363" lon="105.395342"><ele>338.30377</ele><time>2026-04-08T23:22:35.000Z</time></trkpt>
        <trkpt lat="28.662342" lon="105.395283"><ele>337.3783</ele><time>2026-04-08T23:22:39.000Z</time></trkpt>
        <trkpt lat="28.662298" lon="105.395244"><ele>337.1149</ele><time>2026-04-08T23:22:43.000Z</time></trkpt>
        <trkpt lat="28.662249" lon="105.395213"><ele>337.9132</ele><time>2026-04-08T23:22:49.000Z</time></trkpt>
        <trkpt lat="28.662216" lon="105.395177"><ele>338.19058</ele><time>2026-04-08T23:22:52.000Z</time></trkpt>
        <trkpt lat="28.662195" lon="105.395127"><ele>336.25784</ele><time>2026-04-08T23:22:57.000Z</time></trkpt>
        <trkpt lat="28.662182" lon="105.395077"><ele>335.4328</ele><time>2026-04-08T23:23:01.000Z</time></trkpt>
        <trkpt lat="28.662169" lon="105.395025"><ele>332.50565</ele><time>2026-04-08T23:23:07.000Z</time></trkpt>
        <trkpt lat="28.662136" lon="105.394984"><ele>332.10062</ele><time>2026-04-08T23:23:11.000Z</time></trkpt>
        <trkpt lat="28.662101" lon="105.394946"><ele>333.1686</ele><time>2026-04-08T23:23:13.000Z</time></trkpt>
        <trkpt lat="28.662062" lon="105.394906"><ele>332.59955</ele><time>2026-04-08T23:23:19.000Z</time></trkpt>
        <trkpt lat="28.662033" lon="105.394865"><ele>333.2739</ele><time>2026-04-08T23:23:23.000Z</time></trkpt>
        <trkpt lat="28.662012" lon="105.394805"><ele>334.7172</ele><time>2026-04-08T23:23:27.000Z</time></trkpt>
        <trkpt lat="28.661985" lon="105.394763"><ele>332.42633</ele><time>2026-04-08T23:23:32.000Z</time></trkpt>
        <trkpt lat="28.661971" lon="105.394697"><ele>331.18292</ele><time>2026-04-08T23:23:36.000Z</time></trkpt>
        <trkpt lat="28.661951" lon="105.394648"><ele>329.9729</ele><time>2026-04-08T23:23:41.000Z</time></trkpt>
        <trkpt lat="28.661917" lon="105.394598"><ele>328.42712</ele><time>2026-04-08T23:23:47.000Z</time></trkpt>
        <trkpt lat="28.661887" lon="105.394543"><ele>328.48538</ele><time>2026-04-08T23:23:54.000Z</time></trkpt>
        <trkpt lat="28.661876" lon="105.394493"><ele>327.4624</ele><time>2026-04-08T23:24:02.000Z</time></trkpt>
        <trkpt lat="28.661868" lon="105.394436"><ele>326.10077</ele><time>2026-04-08T23:24:07.000Z</time></trkpt>
        <trkpt lat="28.661862" lon="105.394383"><ele>325.60452</ele><time>2026-04-08T23:24:11.000Z</time></trkpt>
        <trkpt lat="28.661869" lon="105.394327"><ele>326.06653</ele><time>2026-04-08T23:24:15.000Z</time></trkpt>
        <trkpt lat="28.661846" lon="105.39427"><ele>327.04807</ele><time>2026-04-08T23:24:19.000Z</time></trkpt>
        <trkpt lat="28.661815" lon="105.394219"><ele>326.38763</ele><time>2026-04-08T23:24:23.000Z</time></trkpt>
        <trkpt lat="28.661787" lon="105.39417"><ele>326.09116</ele><time>2026-04-08T23:24:27.000Z</time></trkpt>
        <trkpt lat="28.661771" lon="105.39411"><ele>326.9817</ele><time>2026-04-08T23:24:31.000Z</time></trkpt>
        <trkpt lat="28.661741" lon="105.394057"><ele>328.4846</ele><time>2026-04-08T23:24:37.000Z</time></trkpt>
        <trkpt lat="28.661729" lon="105.394001"><ele>328.08887</ele><time>2026-04-08T23:24:41.000Z</time></trkpt>
        <trkpt lat="28.661707" lon="105.393941"><ele>327.29144</ele><time>2026-04-08T23:24:48.000Z</time></trkpt>
        <trkpt lat="28.661692" lon="105.393892"><ele>327.57782</ele><time>2026-04-08T23:24:53.000Z</time></trkpt>
        <trkpt lat="28.661667" lon="105.393845"><ele>327.97424</ele><time>2026-04-08T23:24:57.000Z</time></trkpt>
        <trkpt lat="28.661659" lon="105.393794"><ele>327.34848</ele><time>2026-04-08T23:25:02.000Z</time></trkpt>
        <trkpt lat="28.661683" lon="105.393733"><ele>327.181</ele><time>2026-04-08T23:25:08.000Z</time></trkpt>
        <trkpt lat="28.661704" lon="105.393684"><ele>325.93524</ele><time>2026-04-08T23:25:13.000Z</time></trkpt>
        <trkpt lat="28.661728" lon="105.393623"><ele>325.97858</ele><time>2026-04-08T23:25:18.000Z</time></trkpt>
        <trkpt lat="28.661747" lon="105.393573"><ele>324.66843</ele><time>2026-04-08T23:25:24.000Z</time></trkpt>
        <trkpt lat="28.661785" lon="105.393518"><ele>323.89917</ele><time>2026-04-08T23:25:30.000Z</time></trkpt>
        <trkpt lat="28.661804" lon="105.393454"><ele>324.10992</ele><time>2026-04-08T23:25:35.000Z</time></trkpt>
        <trkpt lat="28.6618" lon="105.39339"><ele>324.21857</ele><time>2026-04-08T23:25:45.000Z</time></trkpt>
        <trkpt lat="28.661795" lon="105.393333"><ele>325.19165</ele><time>2026-04-08T23:25:51.000Z</time></trkpt>
        <trkpt lat="28.661809" lon="105.393267"><ele>323.2467</ele><time>2026-04-08T23:26:25.000Z</time></trkpt>
        <trkpt lat="28.661799" lon="105.393209"><ele>321.91153</ele><time>2026-04-08T23:26:31.000Z</time></trkpt>
        <trkpt lat="28.661815" lon="105.393156"><ele>320.5892</ele><time>2026-04-08T23:26:35.000Z</time></trkpt>
        <trkpt lat="28.661825" lon="105.393106"><ele>319.25998</ele><time>2026-04-08T23:26:39.000Z</time></trkpt>
        <trkpt lat="28.661846" lon="105.39306"><ele>319.0633</ele><time>2026-04-08T23:26:43.000Z</time></trkpt>
        <trkpt lat="28.661859" lon="105.39301"><ele>317.243</ele><time>2026-04-08T23:26:48.000Z</time></trkpt>
        <trkpt lat="28.661863" lon="105.392951"><ele>316.7248</ele><time>2026-04-08T23:26:52.000Z</time></trkpt>
        <trkpt lat="28.661877" lon="105.3929"><ele>316.96594</ele><time>2026-04-08T23:26:57.000Z</time></trkpt>
        <trkpt lat="28.661921" lon="105.392735"><ele>312.75766</ele><time>2026-04-08T23:34:19.000Z</time></trkpt>
        <trkpt lat="28.661926" lon="105.392678"><ele>312.73676</ele><time>2026-04-08T23:34:25.000Z</time></trkpt>
        <trkpt lat="28.661935" lon="105.392624"><ele>311.07632</ele><time>2026-04-08T23:34:29.000Z</time></trkpt>
        <trkpt lat="28.661922" lon="105.392563"><ele>311.60587</ele><time>2026-04-08T23:34:33.000Z</time></trkpt>
        <trkpt lat="28.66195" lon="105.39252"><ele>312.11862</ele><time>2026-04-08T23:34:46.000Z</time></trkpt>
        <trkpt lat="28.661982" lon="105.392484"><ele>306.68457</ele><time>2026-04-08T23:34:58.000Z</time></trkpt>
        <trkpt lat="28.662009" lon="105.39244"><ele>302.88974</ele><time>2026-04-08T23:35:12.000Z</time></trkpt>
        <trkpt lat="28.662031" lon="105.392393"><ele>299.3097</ele><time>2026-04-08T23:35:32.000Z</time></trkpt>
        <trkpt lat="28.662073" lon="105.392371"><ele>300.52274</ele><time>2026-04-08T23:35:37.000Z</time></trkpt>
        <trkpt lat="28.662117" lon="105.392335"><ele>297.96075</ele><time>2026-04-08T23:35:45.000Z</time></trkpt>
        <trkpt lat="28.662144" lon="105.392294"><ele>297.68335</ele><time>2026-04-08T23:35:51.000Z</time></trkpt>
        <trkpt lat="28.662163" lon="105.39224"><ele>296.27316</ele><time>2026-04-08T23:36:00.000Z</time></trkpt>
        <trkpt lat="28.662203" lon="105.392199"><ele>296.3793</ele><time>2026-04-08T23:36:04.000Z</time></trkpt>
        <trkpt lat="28.662211" lon="105.392139"><ele>296.19696</ele><time>2026-04-08T23:36:13.000Z</time></trkpt>
        <trkpt lat="28.662235" lon="105.392084"><ele>296.3223</ele><time>2026-04-08T23:36:19.000Z</time></trkpt>
        <trkpt lat="28.662248" lon="105.392033"><ele>295.55524</ele><time>2026-04-08T23:36:26.000Z</time></trkpt>
        <trkpt lat="28.662273" lon="105.391987"><ele>296.6973</ele><time>2026-04-08T23:36:30.000Z</time></trkpt>
        <trkpt lat="28.662277" lon="105.391935"><ele>299.3495</ele><time>2026-04-08T23:36:45.000Z</time></trkpt>
        <trkpt lat="28.662277" lon="105.391879"><ele>298.54578</ele><time>2026-04-08T23:36:53.000Z</time></trkpt>
        <trkpt lat="28.662273" lon="105.391825"><ele>298.41678</ele><time>2026-04-08T23:36:58.000Z</time></trkpt>
        <trkpt lat="28.6623" lon="105.39178"><ele>298.14056</ele><time>2026-04-08T23:37:03.000Z</time></trkpt>
        <trkpt lat="28.6623" lon="105.391726"><ele>299.35284</ele><time>2026-04-08T23:37:09.000Z</time></trkpt>
        <trkpt lat="28.662305" lon="105.391672"><ele>298.03372</ele><time>2026-04-08T23:37:14.000Z</time></trkpt>
        <trkpt lat="28.662329" lon="105.39162"><ele>298.48972</ele><time>2026-04-08T23:37:21.000Z</time></trkpt>
        <trkpt lat="28.662337" lon="105.391568"><ele>299.0492</ele><time>2026-04-08T23:37:27.000Z</time></trkpt>
        <trkpt lat="28.662346" lon="105.391515"><ele>300.72327</ele><time>2026-04-08T23:37:31.000Z</time></trkpt>
        <trkpt lat="28.662349" lon="105.391459"><ele>299.72742</ele><time>2026-04-08T23:37:36.000Z</time></trkpt>
        <trkpt lat="28.662349" lon="105.391404"><ele>299.24088</ele><time>2026-04-08T23:37:44.000Z</time></trkpt>
        <trkpt lat="28.662342" lon="105.391347"><ele>301.51926</ele><time>2026-04-08T23:37:49.000Z</time></trkpt>
        <trkpt lat="28.662364" lon="105.3913"><ele>303.18863</ele><time>2026-04-08T23:37:53.000Z</time></trkpt>
        <trkpt lat="28.662379" lon="105.391246"><ele>303.31952</ele><time>2026-04-08T23:37:59.000Z</time></trkpt>
        <trkpt lat="28.662399" lon="105.391193"><ele>301.7408</ele><time>2026-04-08T23:38:04.000Z</time></trkpt>
        <trkpt lat="28.662404" lon="105.391136"><ele>300.67346</ele><time>2026-04-08T23:38:09.000Z</time></trkpt>
        <trkpt lat="28.662408" lon="105.391083"><ele>299.3627</ele><time>2026-04-08T23:38:14.000Z</time></trkpt>
        <trkpt lat="28.662408" lon="105.391029"><ele>298.19543</ele><time>2026-04-08T23:38:19.000Z</time></trkpt>
        <trkpt lat="28.662418" lon="105.390978"><ele>295.86133</ele><time>2026-04-08T23:38:27.000Z</time></trkpt>
        <trkpt lat="28.662401" lon="105.39093"><ele>293.74103</ele><time>2026-04-08T23:38:34.000Z</time></trkpt>
        <trkpt lat="28.662398" lon="105.390869"><ele>294.0171</ele><time>2026-04-08T23:38:41.000Z</time></trkpt>
        <trkpt lat="28.662417" lon="105.390817"><ele>293.15356</ele><time>2026-04-08T23:38:48.000Z</time></trkpt>
        <trkpt lat="28.662424" lon="105.390763"><ele>292.7465</ele><time>2026-04-08T23:38:54.000Z</time></trkpt>
        <trkpt lat="28.662426" lon="105.390706"><ele>291.90283</ele><time>2026-04-08T23:39:04.000Z</time></trkpt>
        <trkpt lat="28.662418" lon="105.390652"><ele>291.95422</ele><time>2026-04-08T23:39:10.000Z</time></trkpt>
        <trkpt lat="28.662397" lon="105.390592"><ele>292.66132</ele><time>2026-04-08T23:39:16.000Z</time></trkpt>
        <trkpt lat="28.662395" lon="105.39054"><ele>291.46335</ele><time>2026-04-08T23:39:20.000Z</time></trkpt>
        <trkpt lat="28.662395" lon="105.390488"><ele>292.28674</ele><time>2026-04-08T23:39:23.000Z</time></trkpt>
        <trkpt lat="28.662378" lon="105.390437"><ele>290.6915</ele><time>2026-04-08T23:39:29.000Z</time></trkpt>
        <trkpt lat="28.662372" lon="105.390381"><ele>289.1654</ele><time>2026-04-08T23:39:35.000Z</time></trkpt>
        <trkpt lat="28.662402" lon="105.39033"><ele>288.22357</ele><time>2026-04-08T23:39:42.000Z</time></trkpt>
        <trkpt lat="28.662412" lon="105.390278"><ele>286.59586</ele><time>2026-04-08T23:39:52.000Z</time></trkpt>
        <trkpt lat="28.662383" lon="105.390234"><ele>286.40155</ele><time>2026-04-08T23:39:57.000Z</time></trkpt>
        <trkpt lat="28.662357" lon="105.390188"><ele>284.71652</ele><time>2026-04-08T23:40:05.000Z</time></trkpt>
        <trkpt lat="28.662316" lon="105.390152"><ele>284.62674</ele><time>2026-04-08T23:40:12.000Z</time></trkpt>
        <trkpt lat="28.662273" lon="105.390134"><ele>284.63858</ele><time>2026-04-08T23:40:18.000Z</time></trkpt>
        <trkpt lat="28.662236" lon="105.390096"><ele>284.7291</ele><time>2026-04-08T23:40:27.000Z</time></trkpt>
        <trkpt lat="28.662206" lon="105.390056"><ele>283.88394</ele><time>2026-04-08T23:40:34.000Z</time></trkpt>
        <trkpt lat="28.662164" lon="105.390023"><ele>287.1867</ele><time>2026-04-08T23:40:39.000Z</time></trkpt>
        <trkpt lat="28.662118" lon="105.389995"><ele>288.4125</ele><time>2026-04-08T23:40:45.000Z</time></trkpt>
        <trkpt lat="28.662073" lon="105.389971"><ele>288.29327</ele><time>2026-04-08T23:40:49.000Z</time></trkpt>
        <trkpt lat="28.662044" lon="105.389927"><ele>289.46786</ele><time>2026-04-08T23:40:54.000Z</time></trkpt>
        <trkpt lat="28.662003" lon="105.389895"><ele>289.43427</ele><time>2026-04-08T23:40:59.000Z</time></trkpt>
        <trkpt lat="28.661983" lon="105.389845"><ele>290.81192</ele><time>2026-04-08T23:41:05.000Z</time></trkpt>
        <trkpt lat="28.661945" lon="105.38981"><ele>290.12216</ele><time>2026-04-08T23:41:10.000Z</time></trkpt>
        <trkpt lat="28.661914" lon="105.389766"><ele>290.80307</ele><time>2026-04-08T23:41:15.000Z</time></trkpt>
        <trkpt lat="28.661884" lon="105.389725"><ele>291.39462</ele><time>2026-04-08T23:41:21.000Z</time></trkpt>
      </trkseg>
  </trk>
</gpx>